Time,TemperatureF,DewpointF,PressureIn,WindDirection,WindDirectionDegrees,WindSpeedMPH,WindSpeedGustMPH,Humidity,HourlyPrecipIn,Conditions,Clouds,dailyrainin,SoftwareType,DateUTC
2013-02-03 00:00:00,57.9,57.9,29.59,SE,135,8.1,8.1,100,0.00,CLR,,0.00,WeatherDisplay:10.37,2013-02-02 22:00:00,
2013-02-03 00:02:00,57.9,57.9,29.59,South,180,10.4,10.4,100,0.00,CLR,,0.00,WeatherDisplay:10.37,2013-02-02 22:02:00,
2013-02-03 00:03:00,57.9,57.9,29.59,SSE,158,10.4,10.4,100,0.00,CLR,,0.00,WeatherDisplay:10.37,2013-02-02 22:03:00,
2013-02-03 00:05:00,58.1,58.1,29.59,SSW,202,16.1,16.1,100,0.00,CLR,,0.00,WeatherDisplay:10.37,2013-02-02 22:05:00,
2013-02-03 00:07:00,58.1,58.1,29.59,SSE,158,4.6,4.7,100,0.00,CLR,,0.00,WeatherDisplay:10.37,2013-02-02 22:07:00,
2013-02-03 00:08:00,58.1,58.1,29.59,SSE,158,6.4,6.4,100,0.00,CLR,,0.00,WeatherDisplay:10.37,2013-02-02 22:08:00,
2013-02-03 00:10:00,58.1,58.1,29.59,ESE,112,10.4,10.4,100,0.00,CLR,,0.00,WeatherDisplay:10.37,2013-02-02 22:10:00,
2013-02-03 00:12:00,57.9,57.6,29.59,SSE,158,5.8,5.8,99,0.00,CLR,,0.00,WeatherDisplay:10.37,2013-02-02 22:12:00,
2013-02-03 00:13:00,57.9,57.6,29.59,SSE,158,10.2,10.2,99,0.00,CLR,,0.00,WeatherDisplay:10.37,2013-02-02 22:13:00,
2013-02-03 00:15:00,57.9,57.6,29.59,SE,135,5.8,5.9,99,0.00,CLR,,0.00,WeatherDisplay:10.37,2013-02-02 22:15:00,
2013-02-03 00:17:00,57.9,57.6,29.59,SSE,158,12.7,12.7,99,0.00,CLR,,0.00,WeatherDisplay:10.37,2013-02-02 22:17:00,
2013-02-03 00:18:00,57.9,57.6,29.59,SSE,158,15.0,15.0,99,0.00,CLR,,0.00,WeatherDisplay:10.37,2013-02-02 22:18:00,
2013-02-03 00:20:00,57.9,57.6,29.59,SE,135,4.6,4.6,99,0.00,CLR,,0.00,WeatherDisplay:10.37,2013-02-02 22:20:00,
2013-02-03 00:22:00,57.9,57.9,29.59,SSE,158,12.7,12.7,100,0.00,CLR,,0.00,WeatherDisplay:10.37,2013-02-02 22:22:00,
2013-02-03 00:23:00,58.1,58.1,29.59,SSE,158,10.4,10.4,100,0.00,CLR,,0.00,WeatherDisplay:10.37,2013-02-02 22:23:00,
2013-02-03 00:25:00,57.9,57.6,29.59,SSE,158,8.1,8.1,99,0.00,CLR,,0.00,WeatherDisplay:10.37,2013-02-02 22:25:00,
2013-02-03 00:27:00,58.1,58.1,29.59,SSE,158,10.4,10.4,100,0.00,CLR,,0.00,WeatherDisplay:10.37,2013-02-02 22:27:00,
2013-02-03 00:29:00,58.1,58.1,29.59,SSE,158,10.4,10.4,100,0.00,CLR,,0.00,WeatherDisplay:10.37,2013-02-02 22:29:00,
2013-02-03 00:30:00,58.1,58.1,29.59,SSE,158,12.7,12.7,100,0.00,CLR,,0.00,WeatherDisplay:10.37,2013-02-02 22:30:00,
2013-02-03 00:32:00,58.1,58.1,29.59,SSE,158,12.7,12.7,100,0.00,CLR,,0.00,WeatherDisplay:10.37,2013-02-02 22:32:00,
2013-02-03 00:34:00,58.1,58.1,29.59,South,180,17.3,17.3,100,0.00,CLR,,0.00,WeatherDisplay:10.37,2013-02-02 22:34:00,
2013-02-03 00:35:00,58.1,58.1,29.59,South,180,9.2,9.2,100,0.00,CLR,,0.00,WeatherDisplay:10.37,2013-02-02 22:35:00,
2013-02-03 00:38:00,58.1,58.1,29.59,SSE,158,12.7,12.7,100,0.00,CLR,,0.00,WeatherDisplay:10.37,2013-02-02 22:38:00,
2013-02-03 00:39:00,58.1,58.1,29.59,ESE,112,13.8,13.8,100,0.00,CLR,,0.00,WeatherDisplay:10.37,2013-02-02 22:39:00,
2013-02-03 00:40:00,58.1,57.8,29.59,SE,135,14.7,14.7,99,0.00,CLR,,0.00,WeatherDisplay:10.37,2013-02-02 22:40:00,
2013-02-03 00:41:00,58.1,57.8,29.59,SSE,158,19.9,19.9,99,0.00,CLR,,0.00,WeatherDisplay:10.37,2013-02-02 22:41:00,
2013-02-03 00:43:00,58.1,57.8,29.59,SSE,158,19.6,19.6,99,0.00,CLR,,0.00,WeatherDisplay:10.37,2013-02-02 22:43:00,
2013-02-03 00:44:00,58.1,57.8,29.59,SSE,158,17.6,17.6,99,0.00,CLR,,0.00,WeatherDisplay:10.37,2013-02-02 22:44:00,
2013-02-03 00:45:00,58.1,57.5,29.59,SSW,202,19.6,19.6,98,0.00,CLR,,0.00,WeatherDisplay:10.37,2013-02-02 22:45:00,
2013-02-03 00:46:00,58.1,57.5,29.59,SE,135,15.0,15.0,98,0.00,CLR,,0.00,WeatherDisplay:10.37,2013-02-02 22:46:00,
2013-02-03 00:48:00,58.1,57.5,29.59,SSW,202,9.2,9.2,98,0.00,CLR,,0.00,WeatherDisplay:10.37,2013-02-02 22:48:00,
2013-02-03 00:49:00,58.1,57.5,29.59,SSE,158,7.6,7.6,98,0.00,CLR,,0.00,WeatherDisplay:10.37,2013-02-02 22:49:00,
2013-02-03 00:50:00,58.1,57.3,29.59,SSE,158,17.3,17.3,97,0.00,CLR,,0.00,WeatherDisplay:10.37,2013-02-02 22:50:00,
2013-02-03 00:51:00,58.1,57.3,29.59,South,180,11.5,11.5,97,0.00,CLR,,0.00,WeatherDisplay:10.37,2013-02-02 22:51:00,
2013-02-03 00:53:00,58.1,57.3,29.59,SSE,158,9.2,9.2,97,0.00,CLR,,0.00,WeatherDisplay:10.37,2013-02-02 22:53:00,
2013-02-03 00:54:00,58.1,57.3,29.59,SSE,158,17.3,17.3,97,0.00,CLR,,0.00,WeatherDisplay:10.37,2013-02-02 22:54:00,
2013-02-03 00:55:00,58.1,57.0,29.59,SSE,158,17.3,17.3,96,0.00,CLR,,0.00,WeatherDisplay:10.37,2013-02-02 22:55:00,
2013-02-03 00:56:00,58.1,57.0,29.59,SSE,158,12.7,12.7,96,0.00,CLR,,0.00,WeatherDisplay:10.37,2013-02-02 22:56:00,
2013-02-03 00:58:00,58.1,57.0,29.59,SE,135,17.3,17.3,96,0.00,CLR,,0.00,WeatherDisplay:10.37,2013-02-02 22:58:00,
2013-02-03 00:59:00,58.3,57.1,29.59,SE,135,12.7,12.7,96,0.00,CLR,,0.00,WeatherDisplay:10.37,2013-02-02 22:59:00,
2013-02-03 01:00:00,58.1,56.7,29.59,SSE,158,19.2,19.2,95,0.00,CLR,,0.00,WeatherDisplay:10.37,2013-02-02 23:00:00,
2013-02-03 01:01:00,58.1,56.7,29.59,SSE,158,19.6,19.6,95,0.00,CLR,,0.00,WeatherDisplay:10.37,2013-02-02 23:01:00,
2013-02-03 01:03:00,58.3,56.6,29.59,ESE,112,15.0,15.0,94,0.00,CLR,,0.00,WeatherDisplay:10.37,2013-02-02 23:03:00,
2013-02-03 01:04:00,58.3,56.6,29.59,SSE,158,15.0,15.0,94,0.00,CLR,,0.00,WeatherDisplay:10.37,2013-02-02 23:04:00,
2013-02-03 01:06:00,58.3,56.6,29.59,SE,135,6.9,6.9,94,0.00,CLR,,0.00,WeatherDisplay:10.37,2013-02-02 23:06:00,
2013-02-03 01:09:00,58.3,56.6,29.59,SSE,158,11.5,11.5,94,0.00,CLR,,0.00,WeatherDisplay:10.37,2013-02-02 23:09:00,
2013-02-03 01:11:00,58.3,56.6,29.59,SSE,158,12.7,12.7,94,0.00,CLR,,0.00,WeatherDisplay:10.37,2013-02-02 23:11:00,
2013-02-03 01:12:00,58.1,56.1,29.59,SSE,158,13.8,13.8,93,0.00,CLR,,0.00,WeatherDisplay:10.37,2013-02-02 23:12:00,
2013-02-03 01:14:00,58.3,56.3,29.59,SSE,158,15.0,15.0,93,0.00,CLR,,0.00,WeatherDisplay:10.37,2013-02-02 23:14:00,
2013-02-03 01:15:00,58.3,56.3,29.59,SSE,158,17.3,17.3,93,0.00,CLR,,0.00,WeatherDisplay:10.37,2013-02-02 23:15:00,
2013-02-03 01:16:00,58.3,56.3,29.59,South,180,11.5,11.5,93,0.00,CLR,,0.00,WeatherDisplay:10.37,2013-02-02 23:16:00,
2013-02-03 01:17:00,58.3,56.3,29.59,SSE,158,20.7,20.7,93,0.00,CLR,,0.00,WeatherDisplay:10.37,2013-02-02 23:17:00,
2013-02-03 01:19:00,58.3,56.0,29.59,South,180,15.0,15.0,92,0.00,CLR,,0.00,WeatherDisplay:10.37,2013-02-02 23:19:00,
2013-02-03 01:20:00,58.5,55.8,29.59,SSE,158,12.7,12.7,91,0.00,CLR,,0.00,WeatherDisplay:10.37,2013-02-02 23:20:00,
2013-02-03 01:21:00,58.5,55.8,29.59,South,180,15.0,15.0,91,0.00,CLR,,0.00,WeatherDisplay:10.37,2013-02-02 23:21:00,
2013-02-03 01:23:00,58.5,55.5,29.59,SSE,158,15.0,15.0,90,0.00,CLR,,0.00,WeatherDisplay:10.37,2013-02-02 23:23:00,
2013-02-03 01:24:00,58.5,55.5,29.59,SSE,158,13.8,13.8,90,0.00,CLR,,0.00,WeatherDisplay:10.37,2013-02-02 23:24:00,
2013-02-03 01:25:00,58.5,55.2,29.59,SSE,158,12.8,12.8,89,0.00,CLR,,0.00,WeatherDisplay:10.37,2013-02-02 23:25:00,
2013-02-03 01:26:00,58.6,55.4,29.59,SSE,158,16.1,16.1,89,0.00,CLR,,0.00,WeatherDisplay:10.37,2013-02-02 23:26:00,
2013-02-03 01:28:00,58.6,55.4,29.59,South,180,15.0,15.0,89,0.00,CLR,,0.00,WeatherDisplay:10.37,2013-02-02 23:28:00,
2013-02-03 01:29:00,58.6,55.7,29.59,SSE,158,10.4,10.4,90,0.00,CLR,,0.00,WeatherDisplay:10.37,2013-02-02 23:29:00,
2013-02-03 01:30:00,58.6,56.0,29.59,SSE,158,13.8,13.8,91,0.00,CLR,,0.00,WeatherDisplay:10.37,2013-02-02 23:30:00,
2013-02-03 01:31:00,58.6,56.3,29.59,SSE,158,18.4,18.4,92,0.00,CLR,,0.00,WeatherDisplay:10.37,2013-02-02 23:31:00,
2013-02-03 01:33:00,58.6,56.6,29.59,SE,135,18.4,18.4,93,0.00,CLR,,0.00,WeatherDisplay:10.37,2013-02-02 23:33:00,
2013-02-03 01:34:00,58.6,56.6,29.59,SSE,158,23.0,23.0,93,0.00,CLR,,0.00,WeatherDisplay:10.37,2013-02-02 23:34:00,
2013-02-03 01:35:00,58.5,56.7,29.59,SW,225,19.6,19.6,94,0.00,CLR,,0.00,WeatherDisplay:10.37,2013-02-02 23:35:00,
2013-02-03 01:36:00,58.5,56.7,29.59,South,180,21.9,21.9,94,0.00,CLR,,0.00,WeatherDisplay:10.37,2013-02-02 23:36:00,
2013-02-03 01:38:00,58.5,57.3,29.59,SSW,202,21.9,21.9,96,0.00,CLR,,0.00,WeatherDisplay:10.37,2013-02-02 23:38:00,
2013-02-03 01:39:00,58.5,57.6,29.59,SSE,158,17.3,17.3,97,0.00,CLR,,0.00,WeatherDisplay:10.37,2013-02-02 23:39:00,
2013-02-03 01:40:00,58.5,57.9,29.59,South,180,12.7,12.7,98,0.00,CLR,,0.00,WeatherDisplay:10.37,2013-02-02 23:40:00,
2013-02-03 01:41:00,58.5,57.9,29.59,SE,135,11.5,12.3,98,0.00,CLR,,0.00,WeatherDisplay:10.37,2013-02-02 23:41:00,
2013-02-03 01:43:00,58.5,58.2,29.59,West,270,15.0,15.0,99,0.00,CLR,,0.00,WeatherDisplay:10.37,2013-02-02 23:43:00,
2013-02-03 01:44:00,58.5,58.2,29.59,SSE,158,6.9,8.5,99,0.00,CLR,,0.00,WeatherDisplay:10.37,2013-02-02 23:44:00,
2013-02-03 01:45:00,58.3,58.0,29.59,SE,135,8.1,8.1,99,0.00,CLR,,0.00,WeatherDisplay:10.37,2013-02-02 23:45:00,
2013-02-03 01:47:00,58.3,58.3,29.59,South,180,15.0,15.0,100,0.00,CLR,,0.00,WeatherDisplay:10.37,2013-02-02 23:47:00,
2013-02-03 01:48:00,58.3,58.3,29.59,SSW,202,8.1,9.2,100,0.00,CLR,,0.00,WeatherDisplay:10.37,2013-02-02 23:48:00,
2013-02-03 01:49:00,58.3,58.3,29.59,SSE,158,13.8,13.8,100,0.00,CLR,,0.00,WeatherDisplay:10.37,2013-02-02 23:49:00,
2013-02-03 01:50:00,58.5,58.5,29.59,South,180,13.8,13.8,100,0.00,CLR,,0.00,WeatherDisplay:10.37,2013-02-02 23:50:00,
2013-02-03 01:52:00,58.5,58.5,29.59,SSW,202,21.9,21.9,100,0.00,CLR,,0.00,WeatherDisplay:10.37,2013-02-02 23:52:00,
2013-02-03 01:53:00,58.5,58.5,29.59,South,180,21.9,21.9,100,0.00,CLR,,0.00,WeatherDisplay:10.37,2013-02-02 23:53:00,
2013-02-03 01:54:00,58.5,58.5,29.59,SSE,158,17.3,17.3,100,0.00,CLR,,0.00,WeatherDisplay:10.37,2013-02-02 23:54:00,
2013-02-03 01:56:00,58.5,58.5,29.59,SSE,158,21.9,21.9,100,0.00,CLR,,0.00,WeatherDisplay:10.37,2013-02-02 23:56:00,
2013-02-03 01:57:00,58.5,58.5,29.59,SSW,202,16.1,16.1,100,0.00,CLR,,0.00,WeatherDisplay:10.37,2013-02-02 23:57:00,
2013-02-03 01:58:00,58.5,58.5,29.59,South,180,13.8,13.8,100,0.00,CLR,,0.00,WeatherDisplay:10.37,2013-02-02 23:58:00,
2013-02-03 01:59:00,58.3,58.3,29.59,SE,135,10.4,10.4,100,0.00,CLR,,0.00,WeatherDisplay:10.37,2013-02-02 23:59:00,
2013-02-03 02:01:00,58.3,58.3,29.59,South,180,9.2,9.2,100,0.00,CLR,,0.00,WeatherDisplay:10.37,2013-02-03 00:01:00,
2013-02-03 02:03:00,58.3,58.3,29.59,SSW,202,6.9,7.4,100,0.00,CLR,,0.00,WeatherDisplay:10.37,2013-02-03 00:03:00,
2013-02-03 02:05:00,58.3,58.3,29.59,SSE,158,20.7,20.7,100,0.00,CLR,,0.00,WeatherDisplay:10.37,2013-02-03 00:05:00,
2013-02-03 02:06:00,58.3,58.3,29.59,SE,135,6.9,7.4,100,0.00,CLR,,0.00,WeatherDisplay:10.37,2013-02-03 00:06:00,
2013-02-03 02:08:00,58.3,58.3,29.59,SSE,158,17.3,17.3,100,0.00,CLR,,0.00,WeatherDisplay:10.37,2013-02-03 00:08:00,
2013-02-03 02:10:00,58.3,58.3,29.59,SSE,158,20.7,20.7,100,0.00,CLR,,0.00,WeatherDisplay:10.37,2013-02-03 00:10:00,
2013-02-03 02:11:00,58.3,58.3,29.59,South,180,23.0,23.0,100,0.00,CLR,,0.00,WeatherDisplay:10.37,2013-02-03 00:11:00,
2013-02-03 02:13:00,58.3,58.3,29.59,SSE,158,17.3,17.3,100,0.00,CLR,,0.00,WeatherDisplay:10.37,2013-02-03 00:13:00,
2013-02-03 02:15:00,58.3,58.3,29.59,SSE,158,26.5,26.5,100,0.00,CLR,,0.00,WeatherDisplay:10.37,2013-02-03 00:15:00,
2013-02-03 02:16:00,58.3,58.3,29.59,ESE,112,19.6,19.6,100,0.00,CLR,,0.00,WeatherDisplay:10.37,2013-02-03 00:16:00,
2013-02-03 02:18:00,58.3,58.3,29.59,SSE,158,22.5,22.5,100,0.00,CLR,,0.00,WeatherDisplay:10.37,2013-02-03 00:18:00,
2013-02-03 02:19:00,58.3,58.3,29.59,South,180,15.0,15.0,100,0.00,CLR,,0.00,WeatherDisplay:10.37,2013-02-03 00:19:00,
2013-02-03 02:20:00,58.3,58.3,29.59,SSW,202,12.7,12.7,100,0.00,CLR,,0.00,WeatherDisplay:10.37,2013-02-03 00:20:00,
2013-02-03 02:21:00,58.3,58.3,29.59,South,180,19.6,19.6,100,0.00,CLR,,0.00,WeatherDisplay:10.37,2013-02-03 00:21:00,
2013-02-03 02:23:00,58.3,58.3,29.59,SSE,158,19.4,19.4,100,0.00,CLR,,0.00,WeatherDisplay:10.37,2013-02-03 00:23:00,
2013-02-03 02:24:00,58.3,58.3,29.59,SSW,202,25.3,25.3,100,0.00,CLR,,0.00,WeatherDisplay:10.37,2013-02-03 00:24:00,
2013-02-03 02:25:00,58.3,58.3,29.59,South,180,19.6,19.6,100,0.00,CLR,,0.00,WeatherDisplay:10.37,2013-02-03 00:25:00,
2013-02-03 02:27:00,58.3,58.3,29.59,SSW,202,17.3,17.3,100,0.00,CLR,,0.00,WeatherDisplay:10.37,2013-02-03 00:27:00,
2013-02-03 02:28:00,58.5,58.5,29.59,ESE,112,17.3,17.3,100,0.00,CLR,,0.00,WeatherDisplay:10.37,2013-02-03 00:28:00,
2013-02-03 02:29:00,58.5,58.5,29.59,SSE,158,24.2,24.2,100,0.00,CLR,,0.00,WeatherDisplay:10.37,2013-02-03 00:29:00,
2013-02-03 02:30:00,58.5,58.5,29.59,SSE,158,15.0,15.0,100,0.00,CLR,,0.00,WeatherDisplay:10.37,2013-02-03 00:30:00,
2013-02-03 02:32:00,58.5,58.5,29.59,SSE,158,19.6,19.6,100,0.00,CLR,,0.00,WeatherDisplay:10.37,2013-02-03 00:32:00,
2013-02-03 02:33:00,58.5,58.5,29.59,SSE,158,33.4,33.4,100,0.00,CLR,,0.00,WeatherDisplay:10.37,2013-02-03 00:33:00,
2013-02-03 02:34:00,58.5,58.5,29.59,SSW,202,33.4,33.4,100,0.00,CLR,,0.00,WeatherDisplay:10.37,2013-02-03 00:34:00,
2013-02-03 02:35:00,58.5,58.5,29.59,South,180,17.3,17.3,100,0.00,CLR,,0.00,WeatherDisplay:10.37,2013-02-03 00:35:00,
2013-02-03 02:37:00,58.5,58.5,29.59,SSW,202,13.8,13.8,100,0.00,CLR,,0.00,WeatherDisplay:10.37,2013-02-03 00:37:00,
2013-02-03 02:39:00,58.5,58.5,29.59,SSW,202,24.2,24.2,100,0.00,CLR,,0.00,WeatherDisplay:10.37,2013-02-03 00:39:00,
2013-02-03 02:41:00,58.3,58.3,29.59,South,180,24.2,24.2,100,0.00,CLR,,0.00,WeatherDisplay:10.37,2013-02-03 00:41:00,
2013-02-03 02:42:00,58.5,58.5,29.59,SSE,158,19.6,19.6,100,0.00,CLR,,0.00,WeatherDisplay:10.37,2013-02-03 00:42:00,
2013-02-03 02:44:00,58.3,58.3,29.59,SSE,158,13.8,13.8,100,0.00,CLR,,0.00,WeatherDisplay:10.37,2013-02-03 00:44:00,
2013-02-03 02:46:00,58.3,58.3,29.59,SSE,158,22.8,22.8,100,0.00,CLR,,0.00,WeatherDisplay:10.37,2013-02-03 00:46:00,
2013-02-03 02:47:00,58.5,58.5,29.59,SSW,202,23.0,23.0,100,0.00,CLR,,0.00,WeatherDisplay:10.37,2013-02-03 00:47:00,
2013-02-03 02:49:00,58.5,58.5,29.59,SSE,158,17.5,17.5,100,0.00,CLR,,0.00,WeatherDisplay:10.37,2013-02-03 00:49:00,
2013-02-03 02:51:00,58.5,58.5,29.59,South,180,11.5,11.5,100,0.00,CLR,,0.00,WeatherDisplay:10.37,2013-02-03 00:51:00,
2013-02-03 02:52:00,58.3,58.3,29.59,SSE,158,14.7,14.7,100,0.00,CLR,,0.00,WeatherDisplay:10.37,2013-02-03 00:52:00,
2013-02-03 02:54:00,58.5,58.5,29.59,SSE,158,27.6,27.6,100,0.00,CLR,,0.00,WeatherDisplay:10.37,2013-02-03 00:54:00,
2013-02-03 02:55:00,58.5,58.5,29.59,SSE,158,23.5,23.5,100,0.00,CLR,,0.00,WeatherDisplay:10.37,2013-02-03 00:55:00,
2013-02-03 02:56:00,58.5,58.5,29.59,NNE,22,25.3,25.3,100,0.00,CLR,,0.00,WeatherDisplay:10.37,2013-02-03 00:56:00,
2013-02-03 02:57:00,58.5,58.5,29.59,South,180,17.3,17.3,100,0.00,CLR,,0.00,WeatherDisplay:10.37,2013-02-03 00:57:00,
2013-02-03 02:59:00,58.5,58.5,29.59,SSW,202,12.7,12.7,100,0.00,CLR,,0.00,WeatherDisplay:10.37,2013-02-03 00:59:00,
2013-02-03 03:00:00,58.5,58.5,29.59,SSW,202,18.4,18.4,100,0.00,CLR,,0.00,WeatherDisplay:10.37,2013-02-03 01:00:00,
2013-02-03 03:01:00,58.5,58.5,29.59,SE,135,20.7,20.7,100,0.00,CLR,,0.00,WeatherDisplay:10.37,2013-02-03 01:01:00,
2013-02-03 03:02:00,58.5,58.5,29.59,SE,135,18.4,18.4,100,0.00,CLR,,0.00,WeatherDisplay:10.37,2013-02-03 01:02:00,
2013-02-03 03:04:00,58.5,58.5,29.59,SSW,202,21.9,21.9,100,0.00,CLR,,0.00,WeatherDisplay:10.37,2013-02-03 01:04:00,
2013-02-03 03:05:00,58.5,58.5,29.59,SSE,158,27.0,27.0,100,0.00,CLR,,0.00,WeatherDisplay:10.37,2013-02-03 01:05:00,
2013-02-03 03:06:00,58.5,58.5,29.59,SSE,158,27.6,27.6,100,0.00,CLR,,0.00,WeatherDisplay:10.37,2013-02-03 01:06:00,
2013-02-03 03:07:00,58.5,58.5,29.59,SE,135,21.9,21.9,100,0.00,CLR,,0.00,WeatherDisplay:10.37,2013-02-03 01:07:00,
2013-02-03 03:09:00,58.5,58.5,29.59,SSW,202,20.7,20.7,100,0.00,CLR,,0.00,WeatherDisplay:10.37,2013-02-03 01:09:00,
2013-02-03 03:10:00,58.5,58.5,29.59,SSE,158,24.2,24.2,100,0.00,CLR,,0.00,WeatherDisplay:10.37,2013-02-03 01:10:00,
2013-02-03 03:11:00,58.6,58.6,29.59,SSE,158,24.2,24.2,100,0.00,CLR,,0.00,WeatherDisplay:10.37,2013-02-03 01:11:00,
2013-02-03 03:12:00,58.6,58.6,29.59,SSE,158,15.0,15.0,100,0.00,CLR,,0.00,WeatherDisplay:10.37,2013-02-03 01:12:00,
2013-02-03 03:14:00,58.5,58.5,29.59,SSW,202,15.0,15.0,100,0.00,CLR,,0.00,WeatherDisplay:10.37,2013-02-03 01:14:00,
2013-02-03 03:15:00,58.5,58.5,29.59,SSE,158,12.7,12.7,100,0.00,CLR,,0.00,WeatherDisplay:10.37,2013-02-03 01:15:00,
2013-02-03 03:16:00,58.6,58.6,29.56,SSE,158,13.8,13.8,100,0.00,CLR,,0.00,WeatherDisplay:10.37,2013-02-03 01:16:00,
2013-02-03 03:17:00,58.6,58.6,29.56,South,180,25.3,25.3,100,0.00,CLR,,0.00,WeatherDisplay:10.37,2013-02-03 01:17:00,
2013-02-03 03:19:00,58.6,58.6,29.56,South,180,23.0,23.0,100,0.00,CLR,,0.00,WeatherDisplay:10.37,2013-02-03 01:19:00,
2013-02-03 03:21:00,58.6,58.6,29.56,SSE,158,19.6,19.6,100,0.00,CLR,,0.00,WeatherDisplay:10.37,2013-02-03 01:21:00,
2013-02-03 03:22:00,58.6,58.6,29.56,SSE,158,16.1,16.1,100,0.00,CLR,,0.00,WeatherDisplay:10.37,2013-02-03 01:22:00,
2013-02-03 03:23:00,58.6,58.6,29.56,SSE,158,25.3,25.3,100,0.00,CLR,,0.00,WeatherDisplay:10.37,2013-02-03 01:23:00,
2013-02-03 03:24:00,58.6,58.6,29.56,SSE,158,17.5,17.5,100,0.00,CLR,,0.00,WeatherDisplay:10.37,2013-02-03 01:24:00,
2013-02-03 03:26:00,58.6,58.6,29.56,SSW,202,16.1,16.1,100,0.00,CLR,,0.00,WeatherDisplay:10.37,2013-02-03 01:26:00,
2013-02-03 03:27:00,58.6,58.6,29.56,SSW,202,16.1,16.1,100,0.00,CLR,,0.00,WeatherDisplay:10.37,2013-02-03 01:27:00,
2013-02-03 03:28:00,58.6,58.6,29.56,ESE,112,15.0,15.0,100,0.00,CLR,,0.00,WeatherDisplay:10.37,2013-02-03 01:28:00,
2013-02-03 03:29:00,58.6,58.6,29.56,South,180,15.0,15.0,100,0.00,CLR,,0.00,WeatherDisplay:10.37,2013-02-03 01:29:00,
2013-02-03 03:31:00,58.6,58.6,29.56,SSE,158,27.3,27.3,100,0.00,CLR,,0.00,WeatherDisplay:10.37,2013-02-03 01:31:00,
2013-02-03 03:32:00,58.6,58.6,29.56,SE,135,29.1,29.1,100,0.00,CLR,,0.00,WeatherDisplay:10.37,2013-02-03 01:32:00,
2013-02-03 03:33:00,58.6,58.6,29.56,SSW,202,28.8,28.8,100,0.00,CLR,,0.00,WeatherDisplay:10.37,2013-02-03 01:33:00,
2013-02-03 03:34:00,58.6,58.6,29.56,SSE,158,26.5,26.5,100,0.00,CLR,,0.00,WeatherDisplay:10.37,2013-02-03 01:34:00,
2013-02-03 03:36:00,58.6,58.6,29.56,SSW,202,15.0,15.0,100,0.00,CLR,,0.00,WeatherDisplay:10.37,2013-02-03 01:36:00,
2013-02-03 03:37:00,58.6,58.6,29.56,SSW,202,15.0,15.0,100,0.00,CLR,,0.00,WeatherDisplay:10.37,2013-02-03 01:37:00,
2013-02-03 03:38:00,58.6,58.6,29.56,South,180,17.3,17.3,100,0.00,CLR,,0.00,WeatherDisplay:10.37,2013-02-03 01:38:00,
2013-02-03 03:39:00,58.6,58.6,29.56,SSE,158,31.1,31.1,100,0.00,CLR,,0.00,WeatherDisplay:10.37,2013-02-03 01:39:00,
2013-02-03 03:41:00,58.6,58.6,29.56,SSE,158,18.4,18.4,100,0.00,CLR,,0.00,WeatherDisplay:10.37,2013-02-03 01:41:00,
2013-02-03 03:42:00,58.6,58.6,29.56,SSW,202,23.2,23.2,100,0.00,CLR,,0.00,WeatherDisplay:10.37,2013-02-03 01:42:00,
2013-02-03 03:43:00,58.6,58.6,29.56,SSE,158,25.3,25.3,100,0.00,CLR,,0.00,WeatherDisplay:10.37,2013-02-03 01:43:00,
2013-02-03 03:44:00,58.6,58.6,29.56,South,180,21.9,21.9,100,0.00,CLR,,0.00,WeatherDisplay:10.37,2013-02-03 01:44:00,
2013-02-03 03:46:00,58.8,58.8,29.56,SSE,158,27.6,27.6,100,0.00,CLR,,0.00,WeatherDisplay:10.37,2013-02-03 01:46:00,
2013-02-03 03:47:00,58.8,58.8,29.56,SE,135,15.0,15.0,100,0.00,CLR,,0.00,WeatherDisplay:10.37,2013-02-03 01:47:00,
2013-02-03 03:48:00,58.8,58.8,29.56,ESE,112,26.3,26.3,100,0.00,CLR,,0.00,WeatherDisplay:10.37,2013-02-03 01:48:00,
2013-02-03 03:49:00,58.8,58.8,29.56,SSW,202,26.5,26.5,100,0.00,CLR,,0.00,WeatherDisplay:10.37,2013-02-03 01:49:00,
2013-02-03 03:51:00,58.8,58.8,29.56,South,180,13.8,13.8,100,0.00,CLR,,0.00,WeatherDisplay:10.37,2013-02-03 01:51:00,
2013-02-03 03:52:00,58.8,58.8,29.56,South,180,25.3,25.3,100,0.00,CLR,,0.00,WeatherDisplay:10.37,2013-02-03 01:52:00,
2013-02-03 03:53:00,58.8,58.8,29.56,SSE,158,28.8,28.8,100,0.00,CLR,,0.00,WeatherDisplay:10.37,2013-02-03 01:53:00,
2013-02-03 03:54:00,58.8,58.8,29.56,SW,225,24.2,24.2,100,0.00,CLR,,0.00,WeatherDisplay:10.37,2013-02-03 01:54:00,
2013-02-03 03:56:00,58.8,58.8,29.56,SSW,202,12.7,12.7,100,0.00,CLR,,0.00,WeatherDisplay:10.37,2013-02-03 01:56:00,
2013-02-03 03:58:00,58.6,58.6,29.56,SSE,158,19.4,19.4,100,0.00,CLR,,0.00,WeatherDisplay:10.37,2013-02-03 01:58:00,
2013-02-03 03:59:00,58.6,58.6,29.56,SSE,158,19.6,19.6,100,0.00,CLR,,0.00,WeatherDisplay:10.37,2013-02-03 01:59:00,
2013-02-03 04:01:00,58.8,58.8,29.56,SSE,158,35.1,35.1,100,0.00,CLR,,0.00,WeatherDisplay:10.37,2013-02-03 02:01:00,
2013-02-03 04:03:00,58.8,58.8,29.56,SSE,158,25.3,25.3,100,0.00,CLR,,0.00,WeatherDisplay:10.37,2013-02-03 02:03:00,
2013-02-03 04:04:00,58.8,58.8,29.56,SSW,202,13.8,13.8,100,0.00,CLR,,0.00,WeatherDisplay:10.37,2013-02-03 02:04:00,
2013-02-03 04:07:00,58.8,58.8,29.56,ESE,112,24.4,24.4,100,0.00,CLR,,0.00,WeatherDisplay:10.37,2013-02-03 02:07:00,
2013-02-03 04:08:00,58.8,58.8,29.56,SSE,158,24.2,24.2,100,0.00,CLR,,0.00,WeatherDisplay:10.37,2013-02-03 02:08:00,
2013-02-03 04:09:00,58.8,58.8,29.56,SSW,202,24.2,24.2,100,0.00,CLR,,0.00,WeatherDisplay:10.37,2013-02-03 02:09:00,
2013-02-03 04:12:00,58.8,58.8,29.56,SSW,202,18.4,18.4,100,0.00,CLR,,0.00,WeatherDisplay:10.37,2013-02-03 02:12:00,
2013-02-03 04:13:00,58.8,58.8,29.56,SSE,158,20.7,20.7,100,0.00,CLR,,0.00,WeatherDisplay:10.37,2013-02-03 02:13:00,
2013-02-03 04:15:00,58.6,58.6,29.56,SSE,158,13.2,13.2,100,0.00,CLR,,0.00,WeatherDisplay:10.37,2013-02-03 02:15:00,
2013-02-03 04:17:00,58.8,58.8,29.56,SSE,158,27.0,27.0,100,0.00,CLR,,0.00,WeatherDisplay:10.37,2013-02-03 02:17:00,
2013-02-03 04:18:00,58.8,58.8,29.56,South,180,27.6,27.6,100,0.00,CLR,,0.00,WeatherDisplay:10.37,2013-02-03 02:18:00,
2013-02-03 04:20:00,58.8,58.8,29.56,South,179,15.0,30.0,100,0.00,CLR,,0.00,WeatherDisplay:10.37,2013-02-03 02:20:00,
2013-02-03 04:22:00,58.8,58.8,29.56,South,180,17.3,17.3,100,0.00,CLR,,0.00,WeatherDisplay:10.37,2013-02-03 02:22:00,
2013-02-03 04:23:00,58.8,58.8,29.56,SSE,158,26.1,26.1,100,0.00,CLR,,0.00,WeatherDisplay:10.37,2013-02-03 02:23:00,
2013-02-03 04:24:00,58.8,58.8,29.56,SW,225,30.1,30.1,100,0.00,CLR,,0.00,WeatherDisplay:10.37,2013-02-03 02:24:00,
2013-02-03 04:25:00,58.8,58.8,29.56,South,180,26.5,26.5,100,0.00,CLR,,0.00,WeatherDisplay:10.37,2013-02-03 02:25:00,
2013-02-03 04:27:00,58.8,58.8,29.56,SSW,202,15.0,15.0,100,0.00,CLR,,0.00,WeatherDisplay:10.37,2013-02-03 02:27:00,
2013-02-03 04:28:00,58.8,58.8,29.56,WSW,248,26.1,26.1,100,0.00,CLR,,0.00,WeatherDisplay:10.37,2013-02-03 02:28:00,
2013-02-03 04:29:00,58.8,58.8,29.56,South,180,15.0,15.0,100,0.00,CLR,,0.00,WeatherDisplay:10.37,2013-02-03 02:29:00,
2013-02-03 04:30:00,58.8,58.8,29.56,SSE,158,13.8,13.8,100,0.00,CLR,,0.00,WeatherDisplay:10.37,2013-02-03 02:30:00,
2013-02-03 04:32:00,58.8,58.8,29.56,SSE,158,24.2,24.2,100,0.00,CLR,,0.00,WeatherDisplay:10.37,2013-02-03 02:32:00,
2013-02-03 04:33:00,58.8,58.8,29.56,SE,135,17.3,17.3,100,0.00,CLR,,0.00,WeatherDisplay:10.37,2013-02-03 02:33:00,
2013-02-03 04:34:00,58.8,58.8,29.56,SSE,158,17.3,17.3,100,0.00,CLR,,0.00,WeatherDisplay:10.37,2013-02-03 02:34:00,
2013-02-03 04:35:00,58.8,58.8,29.56,SSW,202,13.8,13.8,100,0.00,CLR,,0.00,WeatherDisplay:10.37,2013-02-03 02:35:00,
2013-02-03 04:37:00,58.8,58.8,29.56,South,180,16.1,16.1,100,0.00,CLR,,0.00,WeatherDisplay:10.37,2013-02-03 02:37:00,
2013-02-03 04:39:00,58.8,58.8,29.56,SSE,158,16.1,16.1,100,0.00,CLR,,0.00,WeatherDisplay:10.37,2013-02-03 02:39:00,
2013-02-03 04:40:00,58.8,58.8,29.56,SW,225,19.7,19.7,100,0.00,CLR,,0.00,WeatherDisplay:10.37,2013-02-03 02:40:00,
2013-02-03 04:42:00,58.8,58.8,29.56,SSW,202,18.4,18.4,100,0.00,CLR,,0.00,WeatherDisplay:10.37,2013-02-03 02:42:00,
2013-02-03 04:44:00,58.8,58.8,29.56,SSE,158,20.7,20.7,100,0.00,CLR,,0.00,WeatherDisplay:10.37,2013-02-03 02:44:00,
2013-02-03 04:45:00,58.8,58.8,29.56,SSE,158,25.3,25.3,100,0.00,CLR,,0.00,WeatherDisplay:10.37,2013-02-03 02:45:00,
2013-02-03 04:47:00,58.8,58.8,29.59,SE,135,19.6,19.6,100,0.00,CLR,,0.00,WeatherDisplay:10.37,2013-02-03 02:47:00,
2013-02-03 04:49:00,58.8,58.8,29.59,SSE,158,23.0,23.0,100,0.00,CLR,,0.00,WeatherDisplay:10.37,2013-02-03 02:49:00,
2013-02-03 04:50:00,58.8,58.8,29.59,SE,135,23.0,23.0,100,0.00,CLR,,0.00,WeatherDisplay:10.37,2013-02-03 02:50:00,
2013-02-03 04:52:00,58.8,58.8,29.59,SSE,158,12.7,12.7,100,0.00,CLR,,0.00,WeatherDisplay:10.37,2013-02-03 02:52:00,
2013-02-03 04:54:00,58.8,58.8,29.59,SW,225,23.0,23.0,100,0.00,CLR,,0.00,WeatherDisplay:10.37,2013-02-03 02:54:00,
2013-02-03 04:55:00,58.8,58.8,29.59,SSE,158,15.0,15.0,100,0.00,CLR,,0.00,WeatherDisplay:10.37,2013-02-03 02:55:00,
2013-02-03 04:57:00,58.6,58.6,29.59,South,180,16.8,16.8,100,0.00,CLR,,0.00,WeatherDisplay:10.37,2013-02-03 02:57:00,
2013-02-03 04:59:00,58.6,58.6,29.59,SSW,202,16.1,16.1,100,0.00,CLR,,0.00,WeatherDisplay:10.37,2013-02-03 02:59:00,
2013-02-03 05:00:00,58.6,58.6,29.59,SSW,202,13.8,13.8,100,0.00,CLR,,0.00,WeatherDisplay:10.37,2013-02-03 03:00:00,
2013-02-03 05:02:00,58.6,58.6,29.59,SSE,158,13.8,13.8,100,0.00,CLR,,0.00,WeatherDisplay:10.37,2013-02-03 03:02:00,
2013-02-03 05:04:00,58.6,58.6,29.59,South,180,15.0,15.0,100,0.00,CLR,,0.00,WeatherDisplay:10.37,2013-02-03 03:04:00,
2013-02-03 05:05:00,58.6,58.6,29.59,SSE,158,9.2,9.2,100,0.00,CLR,,0.00,WeatherDisplay:10.37,2013-02-03 03:05:00,
2013-02-03 05:07:00,58.6,58.6,29.59,SE,135,10.4,12.3,100,0.00,CLR,,0.00,WeatherDisplay:10.37,2013-02-03 03:07:00,
2013-02-03 05:10:00,58.6,58.6,29.59,South,180,14.7,14.7,100,0.00,CLR,,0.00,WeatherDisplay:10.37,2013-02-03 03:10:00,
2013-02-03 05:12:00,58.6,58.6,29.59,SSE,158,17.3,17.3,100,0.00,CLR,,0.00,WeatherDisplay:10.37,2013-02-03 03:12:00,
2013-02-03 05:15:00,58.6,58.6,29.59,SSW,202,13.8,13.8,100,0.00,CLR,,0.00,WeatherDisplay:10.37,2013-02-03 03:15:00,
2013-02-03 05:16:00,58.5,58.5,29.59,SSE,158,13.8,13.8,100,0.00,CLR,,0.00,WeatherDisplay:10.37,2013-02-03 03:16:00,
2013-02-03 05:18:00,58.5,58.5,29.59,SSE,158,12.7,12.7,100,0.00,CLR,,0.00,WeatherDisplay:10.37,2013-02-03 03:18:00,
2013-02-03 05:20:00,58.5,58.5,29.59,SSE,167,10.0,25.0,100,0.00,CLR,,0.00,WeatherDisplay:10.37,2013-02-03 03:20:00,
2013-02-03 05:21:00,58.5,58.5,29.59,SSW,202,24.2,24.2,100,0.00,CLR,,0.00,WeatherDisplay:10.37,2013-02-03 03:21:00,
2013-02-03 05:23:00,58.5,58.5,29.59,SSE,158,20.7,20.7,100,0.00,CLR,,0.00,WeatherDisplay:10.37,2013-02-03 03:23:00,
2013-02-03 05:25:00,58.5,58.5,29.59,SSE,158,13.8,13.8,100,0.00,CLR,,0.00,WeatherDisplay:10.37,2013-02-03 03:25:00,
2013-02-03 05:26:00,58.5,58.5,29.59,SSE,158,21.9,21.9,100,0.00,CLR,,0.00,WeatherDisplay:10.37,2013-02-03 03:26:00,
2013-02-03 05:28:00,58.5,58.5,29.59,SSE,158,19.6,19.6,100,0.00,CLR,,0.00,WeatherDisplay:10.37,2013-02-03 03:28:00,
2013-02-03 05:30:00,58.5,58.5,29.59,SE,135,25.3,25.3,100,0.00,CLR,,0.00,WeatherDisplay:10.37,2013-02-03 03:30:00,
2013-02-03 05:31:00,58.5,58.5,29.59,SSE,158,26.3,26.3,100,0.00,CLR,,0.00,WeatherDisplay:10.37,2013-02-03 03:31:00,
2013-02-03 05:33:00,58.5,58.5,29.59,South,180,19.6,19.6,100,0.00,CLR,,0.00,WeatherDisplay:10.37,2013-02-03 03:33:00,
2013-02-03 05:35:00,58.5,58.5,29.59,SSE,158,16.1,16.1,100,0.00,CLR,,0.00,WeatherDisplay:10.37,2013-02-03 03:35:00,
2013-02-03 05:36:00,58.5,58.5,29.59,ESE,112,19.2,19.2,100,0.00,CLR,,0.00,WeatherDisplay:10.37,2013-02-03 03:36:00,
2013-02-03 05:38:00,58.5,58.5,29.59,South,180,17.3,17.3,100,0.00,CLR,,0.00,WeatherDisplay:10.37,2013-02-03 03:38:00,
2013-02-03 05:40:00,58.5,58.5,29.59,South,180,18.4,18.4,100,0.00,CLR,,0.00,WeatherDisplay:10.37,2013-02-03 03:40:00,
2013-02-03 05:41:00,58.5,58.5,29.59,SSE,158,18.4,18.4,100,0.00,CLR,,0.00,WeatherDisplay:10.37,2013-02-03 03:41:00,
2013-02-03 05:43:00,58.6,58.6,29.59,SSE,158,25.1,25.1,100,0.00,CLR,,0.00,WeatherDisplay:10.37,2013-02-03 03:43:00,
2013-02-03 05:45:00,58.6,58.6,29.59,SSE,158,25.3,25.3,100,0.00,CLR,,0.00,WeatherDisplay:10.37,2013-02-03 03:45:00,
2013-02-03 05:46:00,58.6,58.6,29.59,SSE,158,25.3,25.3,100,0.00,CLR,,0.00,WeatherDisplay:10.37,2013-02-03 03:46:00,
2013-02-03 05:48:00,58.6,58.6,29.59,SSW,202,29.9,29.9,100,0.00,CLR,,0.00,WeatherDisplay:10.37,2013-02-03 03:48:00,
2013-02-03 05:50:00,58.8,58.8,29.59,ESE,112,13.8,13.8,100,0.00,CLR,,0.00,WeatherDisplay:10.37,2013-02-03 03:50:00,
2013-02-03 05:51:00,58.8,58.8,29.59,SSE,158,13.8,13.8,100,0.00,CLR,,0.00,WeatherDisplay:10.37,2013-02-03 03:51:00,
2013-02-03 05:54:00,58.8,58.8,29.59,South,180,13.8,13.8,100,0.00,CLR,,0.00,WeatherDisplay:10.37,2013-02-03 03:54:00,
2013-02-03 05:55:00,58.8,58.8,29.59,SSE,158,16.1,16.1,100,0.00,CLR,,0.00,WeatherDisplay:10.37,2013-02-03 03:55:00,
2013-02-03 05:56:00,58.8,58.8,29.59,SSE,158,10.4,10.4,100,0.00,CLR,,0.00,WeatherDisplay:10.37,2013-02-03 03:56:00,
2013-02-03 05:57:00,58.8,58.8,29.59,South,180,19.6,19.6,100,0.00,CLR,,0.00,WeatherDisplay:10.37,2013-02-03 03:57:00,
2013-02-03 05:59:00,58.8,58.8,29.59,SSW,202,16.1,16.1,100,0.00,CLR,,0.00,WeatherDisplay:10.37,2013-02-03 03:59:00,
2013-02-03 06:00:00,58.8,58.8,29.59,SSE,158,12.8,12.8,100,0.00,CLR,,0.00,WeatherDisplay:10.37,2013-02-03 04:00:00,
2013-02-03 06:01:00,58.8,58.8,29.59,SSE,158,11.5,11.5,100,0.00,CLR,,0.00,WeatherDisplay:10.37,2013-02-03 04:01:00,
2013-02-03 06:02:00,58.8,58.5,29.59,SSW,202,24.2,24.2,99,0.00,CLR,,0.00,WeatherDisplay:10.37,2013-02-03 04:02:00,
2013-02-03 06:04:00,58.8,58.5,29.59,SSE,158,17.3,17.3,99,0.00,CLR,,0.00,WeatherDisplay:10.37,2013-02-03 04:04:00,
2013-02-03 06:05:00,58.8,58.5,29.59,SSE,158,12.7,12.7,99,0.00,CLR,,0.00,WeatherDisplay:10.37,2013-02-03 04:05:00,
2013-02-03 06:06:00,58.8,58.5,29.59,South,180,10.4,10.4,99,0.00,CLR,,0.00,WeatherDisplay:10.37,2013-02-03 04:06:00,
2013-02-03 06:07:00,58.8,58.5,29.59,SSE,158,17.5,17.5,99,0.00,CLR,,0.00,WeatherDisplay:10.37,2013-02-03 04:07:00,
2013-02-03 06:09:00,58.8,58.5,29.59,SSE,158,17.3,17.3,99,0.00,CLR,,0.00,WeatherDisplay:10.37,2013-02-03 04:09:00,
2013-02-03 06:11:00,58.8,58.5,29.59,SSE,158,15.0,15.0,99,0.00,CLR,,0.00,WeatherDisplay:10.37,2013-02-03 04:11:00,
2013-02-03 06:12:00,58.6,58.4,29.59,SSE,158,19.6,19.6,99,0.00,CLR,,0.00,WeatherDisplay:10.37,2013-02-03 04:12:00,
2013-02-03 06:14:00,58.6,58.4,29.59,SSE,158,16.1,16.1,99,0.00,CLR,,0.00,WeatherDisplay:10.37,2013-02-03 04:14:00,
2013-02-03 06:16:00,58.6,58.1,29.59,SSE,158,17.3,17.3,98,0.00,CLR,,0.00,WeatherDisplay:10.37,2013-02-03 04:16:00,
2013-02-03 06:17:00,58.6,58.1,29.59,SSE,158,15.0,15.0,98,0.00,CLR,,0.00,WeatherDisplay:10.37,2013-02-03 04:17:00,
2013-02-03 06:19:00,58.6,58.1,29.59,SSE,158,15.0,15.0,98,0.00,CLR,,0.00,WeatherDisplay:10.37,2013-02-03 04:19:00,
2013-02-03 06:21:00,58.6,58.1,29.59,SSW,202,17.3,17.3,98,0.00,CLR,,0.00,WeatherDisplay:10.37,2013-02-03 04:21:00,
2013-02-03 06:22:00,58.6,58.1,29.59,SSW,202,11.5,11.5,98,0.00,CLR,,0.00,WeatherDisplay:10.37,2013-02-03 04:22:00,
2013-02-03 06:24:00,58.6,58.1,29.59,SSE,158,17.3,17.3,98,0.00,CLR,,0.00,WeatherDisplay:10.37,2013-02-03 04:24:00,
2013-02-03 06:26:00,58.6,58.1,29.59,SSE,158,17.3,17.3,98,0.00,CLR,,0.00,WeatherDisplay:10.37,2013-02-03 04:26:00,
2013-02-03 06:27:00,58.6,58.1,29.59,South,180,19.6,19.6,98,0.00,CLR,,0.00,WeatherDisplay:10.37,2013-02-03 04:27:00,
2013-02-03 06:30:00,58.8,58.2,29.59,SSE,159,12.0,20.0,98,0.00,CLR,,0.00,WeatherDisplay:10.37,2013-02-03 04:30:00,
2013-02-03 06:31:00,58.8,58.3,29.59,SSE,158,13.8,13.8,98,0.00,CLR,,0.00,WeatherDisplay:10.37,2013-02-03 04:31:00,
2013-02-03 06:33:00,58.8,58.3,29.59,SSW,202,16.1,16.1,98,0.00,CLR,,0.00,WeatherDisplay:10.37,2013-02-03 04:33:00,
2013-02-03 06:35:00,58.8,58.3,29.59,SSE,158,19.6,19.6,98,0.00,CLR,,0.00,WeatherDisplay:10.37,2013-02-03 04:35:00,
2013-02-03 06:36:00,58.8,58.3,29.59,SSW,202,23.0,23.0,98,0.00,CLR,,0.00,WeatherDisplay:10.37,2013-02-03 04:36:00,
2013-02-03 06:38:00,58.6,57.8,29.59,SW,225,15.0,15.0,97,0.00,CLR,,0.00,WeatherDisplay:10.37,2013-02-03 04:38:00,
2013-02-03 06:40:00,58.6,57.8,29.59,SE,135,17.5,17.5,97,0.00,CLR,,0.00,WeatherDisplay:10.37,2013-02-03 04:40:00,
2013-02-03 06:41:00,58.6,57.8,29.59,SSE,158,19.6,19.6,97,0.00,CLR,,0.00,WeatherDisplay:10.37,2013-02-03 04:41:00,
2013-02-03 06:44:00,58.6,57.8,29.59,SE,135,18.4,18.4,97,0.00,CLR,,0.00,WeatherDisplay:10.37,2013-02-03 04:44:00,
2013-02-03 06:45:00,58.6,57.8,29.59,SSE,158,15.0,15.0,97,0.00,CLR,,0.00,WeatherDisplay:10.37,2013-02-03 04:45:00,
2013-02-03 06:46:00,58.6,57.8,29.59,SSW,202,17.3,17.3,97,0.00,CLR,,0.00,WeatherDisplay:10.37,2013-02-03 04:46:00,
2013-02-03 06:49:00,58.6,57.8,29.59,SSE,158,23.0,23.0,97,0.00,CLR,,0.00,WeatherDisplay:10.37,2013-02-03 04:49:00,
2013-02-03 06:50:00,58.6,57.8,29.59,SSW,202,23.0,23.0,97,0.00,CLR,,0.00,WeatherDisplay:10.37,2013-02-03 04:50:00,
2013-02-03 06:51:00,58.6,57.8,29.59,SSE,158,23.9,23.9,97,0.00,CLR,,0.00,WeatherDisplay:10.37,2013-02-03 04:51:00,
2013-02-03 06:54:00,58.8,57.7,29.59,SSE,158,19.7,19.7,96,0.00,CLR,,0.00,WeatherDisplay:10.37,2013-02-03 04:54:00,
2013-02-03 06:55:00,58.8,57.7,29.59,South,180,23.0,23.0,96,0.00,CLR,,0.00,WeatherDisplay:10.37,2013-02-03 04:55:00,
2013-02-03 06:56:00,58.8,57.7,29.59,SE,135,18.4,18.4,96,0.00,CLR,,0.00,WeatherDisplay:10.37,2013-02-03 04:56:00,
2013-02-03 06:59:00,58.6,57.5,29.59,South,180,25.3,25.3,96,0.00,CLR,,0.00,WeatherDisplay:10.37,2013-02-03 04:59:00,
2013-02-03 07:00:00,58.8,57.7,29.59,SE,135,25.3,25.3,96,0.00,CLR,,0.00,WeatherDisplay:10.37,2013-02-03 05:00:00,
2013-02-03 07:01:00,58.8,57.7,29.59,SE,135,25.3,25.3,96,0.00,CLR,,0.00,WeatherDisplay:10.37,2013-02-03 05:01:00,
2013-02-03 07:02:00,58.8,57.7,29.59,SSE,158,18.4,18.4,96,0.00,CLR,,0.00,WeatherDisplay:10.37,2013-02-03 05:02:00,
2013-02-03 07:03:00,58.8,57.7,29.59,South,180,17.3,17.3,96,0.00,CLR,,0.00,WeatherDisplay:10.37,2013-02-03 05:03:00,
2013-02-03 07:05:00,58.8,57.4,29.59,SE,135,15.0,15.0,95,0.00,CLR,,0.00,WeatherDisplay:10.37,2013-02-03 05:05:00,
2013-02-03 07:06:00,58.8,57.4,29.59,SSW,202,11.5,11.5,95,0.00,CLR,,0.00,WeatherDisplay:10.37,2013-02-03 05:06:00,
2013-02-03 07:07:00,58.8,57.4,29.59,SE,135,16.8,16.8,95,0.00,CLR,,0.00,WeatherDisplay:10.37,2013-02-03 05:07:00,
2013-02-03 07:08:00,58.8,57.4,29.59,SSE,158,21.9,21.9,95,0.00,CLR,,0.00,WeatherDisplay:10.37,2013-02-03 05:08:00,
2013-02-03 07:11:00,58.8,57.4,29.59,SSW,202,15.0,15.0,95,0.00,CLR,,0.00,WeatherDisplay:10.37,2013-02-03 05:11:00,
2013-02-03 07:12:00,58.8,57.4,29.59,South,180,27.3,27.3,95,0.00,CLR,,0.00,WeatherDisplay:10.37,2013-02-03 05:12:00,
2013-02-03 07:13:00,58.8,57.7,29.59,SSW,202,27.6,27.6,96,0.00,CLR,,0.00,WeatherDisplay:10.37,2013-02-03 05:13:00,
2013-02-03 07:16:00,58.8,57.7,29.59,ESE,112,21.9,21.9,96,0.00,CLR,,0.00,WeatherDisplay:10.37,2013-02-03 05:16:00,
2013-02-03 07:17:00,58.8,57.7,29.59,SSE,158,22.8,22.8,96,0.00,CLR,,0.00,WeatherDisplay:10.37,2013-02-03 05:17:00,
2013-02-03 07:18:00,58.8,57.7,29.59,SSE,158,26.5,26.5,96,0.00,CLR,,0.00,WeatherDisplay:10.37,2013-02-03 05:18:00,
2013-02-03 07:21:00,59.0,57.6,29.59,South,180,18.4,18.4,95,0.00,CLR,,0.00,WeatherDisplay:10.37,2013-02-03 05:21:00,
2013-02-03 07:23:00,58.8,57.7,29.59,SSE,158,16.3,16.3,96,0.00,CLR,,0.00,WeatherDisplay:10.37,2013-02-03 05:23:00,
2013-02-03 07:26:00,58.8,57.7,29.59,SSE,158,17.3,17.3,96,0.00,CLR,,0.00,WeatherDisplay:10.37,2013-02-03 05:26:00,
2013-02-03 07:27:00,58.8,57.7,29.59,SSE,158,12.7,12.7,96,0.00,CLR,,0.00,WeatherDisplay:10.37,2013-02-03 05:27:00,
2013-02-03 07:28:00,58.8,57.7,29.59,South,180,16.1,16.1,96,0.00,CLR,,0.00,WeatherDisplay:10.37,2013-02-03 05:28:00,
2013-02-03 07:31:00,58.8,57.7,29.59,SSE,158,23.7,23.7,96,0.00,CLR,,0.00,WeatherDisplay:10.37,2013-02-03 05:31:00,
2013-02-03 07:32:00,59.0,57.6,29.59,SSW,202,24.2,24.2,95,0.00,CLR,,0.00,WeatherDisplay:10.37,2013-02-03 05:32:00,
2013-02-03 07:33:00,59.0,57.6,29.59,South,180,15.0,15.0,95,0.00,CLR,,0.00,WeatherDisplay:10.37,2013-02-03 05:33:00,
2013-02-03 07:34:00,58.8,57.7,29.59,SE,135,11.5,11.5,96,0.00,CLR,,0.00,WeatherDisplay:10.37,2013-02-03 05:34:00,
2013-02-03 07:36:00,58.8,57.4,29.59,SSE,158,20.7,20.7,95,0.00,CLR,,0.00,WeatherDisplay:10.37,2013-02-03 05:36:00,
2013-02-03 07:37:00,58.8,57.4,29.59,SW,225,19.6,19.6,95,0.00,CLR,,0.00,WeatherDisplay:10.37,2013-02-03 05:37:00,
2013-02-03 07:38:00,58.8,57.4,29.59,SSE,158,13.8,13.8,95,0.00,CLR,,0.00,WeatherDisplay:10.37,2013-02-03 05:38:00,
2013-02-03 07:39:00,59.0,57.6,29.59,SE,135,16.1,16.1,95,0.00,CLR,,0.00,WeatherDisplay:10.37,2013-02-03 05:39:00,
2013-02-03 07:42:00,59.0,57.6,29.59,SSE,158,18.4,18.4,95,0.00,CLR,,0.00,WeatherDisplay:10.37,2013-02-03 05:42:00,
2013-02-03 07:43:00,59.0,57.6,29.59,SSE,158,19.6,19.6,95,0.00,CLR,,0.00,WeatherDisplay:10.37,2013-02-03 05:43:00,
2013-02-03 07:44:00,59.0,57.6,29.59,SSE,158,20.6,20.6,95,0.00,CLR,,0.00,WeatherDisplay:10.37,2013-02-03 05:44:00,
2013-02-03 07:47:00,59.0,57.3,29.59,South,180,15.0,15.0,94,0.00,CLR,,0.00,WeatherDisplay:10.37,2013-02-03 05:47:00,
2013-02-03 07:48:00,59.0,57.3,29.59,SE,135,22.3,22.3,94,0.00,CLR,,0.00,WeatherDisplay:10.37,2013-02-03 05:48:00,
2013-02-03 07:49:00,59.2,57.5,29.59,SW,225,27.6,27.6,94,0.00,CLR,,0.00,WeatherDisplay:10.37,2013-02-03 05:49:00,
2013-02-03 07:52:00,59.2,57.5,29.59,SSE,158,19.6,19.6,94,0.00,CLR,,0.00,WeatherDisplay:10.37,2013-02-03 05:52:00,
2013-02-03 07:53:00,59.2,57.5,29.59,SSE,158,19.6,19.6,94,0.00,CLR,,0.00,WeatherDisplay:10.37,2013-02-03 05:53:00,
2013-02-03 07:55:00,59.2,57.5,29.59,SSE,158,21.9,21.9,94,0.00,CLR,,0.00,WeatherDisplay:10.37,2013-02-03 05:55:00,
2013-02-03 07:57:00,59.2,57.5,29.59,SSE,158,10.4,10.4,94,0.00,CLR,,0.00,WeatherDisplay:10.37,2013-02-03 05:57:00,
2013-02-03 07:58:00,59.2,57.5,29.59,SSE,158,13.8,13.8,94,0.00,CLR,,0.00,WeatherDisplay:10.37,2013-02-03 05:58:00,
2013-02-03 08:00:00,59.2,57.5,29.59,South,180,9.2,9.2,94,0.00,CLR,,0.00,WeatherDisplay:10.37,2013-02-03 06:00:00,
2013-02-03 08:02:00,59.2,57.2,29.59,SSE,158,15.0,15.0,93,0.00,CLR,,0.00,WeatherDisplay:10.37,2013-02-03 06:02:00,
2013-02-03 08:03:00,59.2,57.2,29.59,SSE,158,12.7,12.7,93,0.00,CLR,,0.00,WeatherDisplay:10.37,2013-02-03 06:03:00,
2013-02-03 08:05:00,59.2,57.2,29.59,SSE,158,16.1,16.1,93,0.00,CLR,,0.00,WeatherDisplay:10.37,2013-02-03 06:05:00,
2013-02-03 08:08:00,59.4,57.3,29.59,SSE,158,12.7,12.7,93,0.00,CLR,,0.00,WeatherDisplay:10.37,2013-02-03 06:08:00,
2013-02-03 08:10:00,59.4,57.3,29.59,SSE,158,13.8,13.8,93,0.00,CLR,,0.00,WeatherDisplay:10.37,2013-02-03 06:10:00,
2013-02-03 08:13:00,59.4,57.0,29.59,SSW,202,20.7,20.7,92,0.00,CLR,,0.00,WeatherDisplay:10.37,2013-02-03 06:13:00,
2013-02-03 08:15:00,59.4,57.0,29.59,SSE,158,23.0,23.0,92,0.00,CLR,,0.00,WeatherDisplay:10.37,2013-02-03 06:15:00,
2013-02-03 08:18:00,59.5,57.2,29.59,SSW,202,23.0,23.0,92,0.00,CLR,,0.00,WeatherDisplay:10.37,2013-02-03 06:18:00,
2013-02-03 08:19:00,59.5,57.2,29.59,SSW,202,29.9,29.9,92,0.00,CLR,,0.00,WeatherDisplay:10.37,2013-02-03 06:19:00,
2013-02-03 08:20:00,59.5,57.2,29.59,SSE,158,22.3,22.3,92,0.00,CLR,,0.00,WeatherDisplay:10.37,2013-02-03 06:20:00,
2013-02-03 08:23:00,59.7,57.1,29.59,SSE,158,17.3,17.3,91,0.00,CLR,,0.00,WeatherDisplay:10.37,2013-02-03 06:23:00,
2013-02-03 08:24:00,59.9,57.3,29.59,SSE,158,34.6,34.6,91,0.00,CLR,,0.00,WeatherDisplay:10.37,2013-02-03 06:24:00,
2013-02-03 08:26:00,59.9,57.3,29.59,ESE,112,18.4,18.4,91,0.00,CLR,,0.00,WeatherDisplay:10.37,2013-02-03 06:26:00,
2013-02-03 08:29:00,60.1,57.1,29.59,SSE,158,19.6,19.6,90,0.00,CLR,,0.00,WeatherDisplay:10.37,2013-02-03 06:29:00,
2013-02-03 08:31:00,60.3,57.3,29.59,SE,135,26.5,26.5,90,0.00,CLR,,0.00,WeatherDisplay:10.37,2013-02-03 06:31:00,
2013-02-03 08:34:00,60.4,57.2,29.59,South,180,17.3,17.3,89,0.00,CLR,,0.00,WeatherDisplay:10.37,2013-02-03 06:34:00,
2013-02-03 08:36:00,60.6,57.0,29.59,South,180,20.7,20.7,88,0.00,CLR,,0.00,WeatherDisplay:10.37,2013-02-03 06:36:00,
2013-02-03 08:39:00,60.6,56.7,29.59,SE,135,23.0,23.0,87,0.00,CLR,,0.00,WeatherDisplay:10.37,2013-02-03 06:39:00,
2013-02-03 08:40:00,60.6,56.7,29.59,SSE,158,23.0,23.0,87,0.00,CLR,,0.00,WeatherDisplay:10.37,2013-02-03 06:40:00,
2013-02-03 08:41:00,60.6,56.7,29.59,SSE,158,21.9,21.9,87,0.00,CLR,,0.00,WeatherDisplay:10.37,2013-02-03 06:41:00,
2013-02-03 08:44:00,61.0,56.4,29.59,SSW,202,17.3,17.3,85,0.00,CLR,,0.00,WeatherDisplay:10.37,2013-02-03 06:44:00,
2013-02-03 08:45:00,61.0,56.4,29.59,WSW,248,9.2,9.2,85,0.00,CLR,,0.00,WeatherDisplay:10.37,2013-02-03 06:45:00,
2013-02-03 08:46:00,61.2,56.6,29.62,South,180,12.7,12.7,85,0.00,CLR,,0.00,WeatherDisplay:10.37,2013-02-03 06:46:00,
2013-02-03 08:49:00,61.3,56.5,29.62,SSE,158,17.6,17.6,84,0.00,CLR,,0.00,WeatherDisplay:10.37,2013-02-03 06:49:00,
2013-02-03 08:50:00,61.3,56.5,29.62,South,169,9.0,18.0,84,0.00,CLR,,0.00,WeatherDisplay:10.37,2013-02-03 06:50:00,
2013-02-03 08:51:00,61.3,56.5,29.62,SSE,158,19.6,19.6,84,0.00,CLR,,0.00,WeatherDisplay:10.37,2013-02-03 06:51:00,
2013-02-03 08:54:00,61.2,56.0,29.62,SSE,158,23.0,23.0,83,0.00,CLR,,0.00,WeatherDisplay:10.37,2013-02-03 06:54:00,
2013-02-03 08:55:00,61.2,56.0,29.62,SSE,158,22.1,22.1,83,0.00,CLR,,0.00,WeatherDisplay:10.37,2013-02-03 06:55:00,
2013-02-03 08:56:00,61.3,56.5,29.62,SE,135,21.9,21.9,84,0.00,CLR,,0.00,WeatherDisplay:10.37,2013-02-03 06:56:00,
2013-02-03 08:59:00,61.3,56.5,29.62,SE,135,18.4,18.4,84,0.00,CLR,,0.00,WeatherDisplay:10.37,2013-02-03 06:59:00,
2013-02-03 09:00:00,61.3,56.5,29.62,SSE,158,12.7,12.7,84,0.00,CLR,,0.00,WeatherDisplay:10.37,2013-02-03 07:00:00,
2013-02-03 09:01:00,61.5,56.3,29.59,SSE,158,21.9,21.9,83,0.00,CLR,,0.00,WeatherDisplay:10.37,2013-02-03 07:01:00,
2013-02-03 09:04:00,61.5,56.3,29.59,SSE,158,24.2,24.2,83,0.00,CLR,,0.00,WeatherDisplay:10.37,2013-02-03 07:04:00,
2013-02-03 09:05:00,61.5,56.3,29.59,SE,135,18.5,18.5,83,0.00,CLR,,0.00,WeatherDisplay:10.37,2013-02-03 07:05:00,
2013-02-03 09:06:00,61.5,56.3,29.59,SSE,158,18.4,18.4,83,0.00,CLR,,0.00,WeatherDisplay:10.37,2013-02-03 07:06:00,
2013-02-03 09:07:00,61.5,56.3,29.59,SSW,202,18.4,18.4,83,0.00,CLR,,0.00,WeatherDisplay:10.37,2013-02-03 07:07:00,
2013-02-03 09:09:00,61.7,56.1,29.59,SSW,202,17.3,17.3,82,0.00,CLR,,0.00,WeatherDisplay:10.37,2013-02-03 07:09:00,
2013-02-03 09:10:00,61.9,56.3,29.59,SSE,158,15.4,15.4,82,0.00,CLR,,0.00,WeatherDisplay:10.37,2013-02-03 07:10:00,
2013-02-03 09:11:00,61.9,56.3,29.59,SSE,158,15.0,15.0,82,0.00,CLR,,0.00,WeatherDisplay:10.37,2013-02-03 07:11:00,
2013-02-03 09:12:00,61.9,56.3,29.59,SSW,202,15.0,15.0,82,0.00,CLR,,0.00,WeatherDisplay:10.37,2013-02-03 07:12:00,
2013-02-03 09:15:00,61.9,56.3,29.59,SSW,202,20.7,20.7,82,0.00,CLR,,0.00,WeatherDisplay:10.37,2013-02-03 07:15:00,
2013-02-03 09:16:00,62.1,56.2,29.59,ESE,112,13.8,13.8,81,0.00,CLR,,0.00,WeatherDisplay:10.37,2013-02-03 07:16:00,
2013-02-03 09:17:00,62.1,56.2,29.59,South,180,16.1,16.1,81,0.00,CLR,,0.00,WeatherDisplay:10.37,2013-02-03 07:17:00,
2013-02-03 09:20:00,62.1,55.8,29.59,SSW,202,26.5,26.5,80,0.00,CLR,,0.00,WeatherDisplay:10.37,2013-02-03 07:20:00,
2013-02-03 09:22:00,62.1,55.8,29.59,SE,135,27.6,27.6,80,0.00,CLR,,0.00,WeatherDisplay:10.37,2013-02-03 07:22:00,
2013-02-03 09:25:00,62.2,55.6,29.59,SSW,202,15.4,15.4,79,0.00,CLR,,0.00,WeatherDisplay:10.37,2013-02-03 07:25:00,
2013-02-03 09:26:00,62.4,55.5,29.59,SSE,158,17.3,17.3,78,0.00,CLR,,0.00,WeatherDisplay:10.37,2013-02-03 07:26:00,
2013-02-03 09:27:00,62.2,55.3,29.59,SSE,158,26.5,26.5,78,0.00,CLR,,0.00,WeatherDisplay:10.37,2013-02-03 07:27:00,
2013-02-03 09:30:00,62.4,55.5,29.59,South,180,27.6,27.6,78,0.00,CLR,,0.00,WeatherDisplay:10.37,2013-02-03 07:30:00,
2013-02-03 09:31:00,62.2,54.9,29.59,SSW,202,23.0,23.0,77,0.00,CLR,,0.00,WeatherDisplay:10.37,2013-02-03 07:31:00,
2013-02-03 09:32:00,62.4,54.8,29.59,SSE,158,17.3,17.3,76,0.00,CLR,,0.00,WeatherDisplay:10.37,2013-02-03 07:32:00,
2013-02-03 09:35:00,62.4,54.8,29.59,SSW,202,33.4,33.4,76,0.00,CLR,,0.00,WeatherDisplay:10.37,2013-02-03 07:35:00,
2013-02-03 09:36:00,62.6,54.9,29.59,SE,135,24.2,24.2,76,0.00,CLR,,0.00,WeatherDisplay:10.37,2013-02-03 07:36:00,
2013-02-03 09:37:00,62.4,54.8,29.59,SSE,158,26.5,26.5,76,0.00,CLR,,0.00,WeatherDisplay:10.37,2013-02-03 07:37:00,
2013-02-03 09:38:00,62.4,54.8,29.59,SW,225,26.5,26.5,76,0.00,CLR,,0.00,WeatherDisplay:10.37,2013-02-03 07:38:00,
2013-02-03 09:40:00,62.8,54.7,29.59,SSE,158,12.7,12.7,75,0.00,CLR,,0.00,WeatherDisplay:10.37,2013-02-03 07:40:00,
2013-02-03 09:41:00,62.8,54.7,29.59,SSE,158,20.7,20.7,75,0.00,CLR,,0.00,WeatherDisplay:10.37,2013-02-03 07:41:00,
2013-02-03 09:43:00,63.0,54.9,29.59,SE,135,13.8,13.8,75,0.00,CLR,,0.00,WeatherDisplay:10.37,2013-02-03 07:43:00,
2013-02-03 09:45:00,63.0,53.8,29.59,SSE,158,36.8,36.8,72,0.00,CLR,,0.00,WeatherDisplay:10.37,2013-02-03 07:45:00,
2013-02-03 09:46:00,63.0,53.8,29.59,South,180,27.6,27.6,72,0.00,CLR,,0.00,WeatherDisplay:10.37,2013-02-03 07:46:00,
2013-02-03 09:48:00,63.0,53.8,29.59,SE,135,24.2,24.2,72,0.00,CLR,,0.00,WeatherDisplay:10.37,2013-02-03 07:48:00,
2013-02-03 09:50:00,63.1,54.0,29.59,South,180,24.2,24.2,72,0.00,CLR,,0.00,WeatherDisplay:10.37,2013-02-03 07:50:00,
2013-02-03 09:51:00,63.1,54.0,29.59,SSW,202,24.2,24.2,72,0.00,CLR,,0.00,WeatherDisplay:10.37,2013-02-03 07:51:00,
2013-02-03 09:53:00,63.3,53.0,29.59,SSE,158,17.6,17.6,69,0.00,CLR,,0.00,WeatherDisplay:10.37,2013-02-03 07:53:00,
2013-02-03 09:54:00,63.3,53.0,29.59,NE,45,18.4,18.4,69,0.00,CLR,,0.00,WeatherDisplay:10.37,2013-02-03 07:54:00,
2013-02-03 09:55:00,63.5,52.7,29.59,SSE,158,15.4,15.4,68,0.00,CLR,,0.00,WeatherDisplay:10.37,2013-02-03 07:55:00,
2013-02-03 09:56:00,63.5,52.7,29.59,SSE,158,17.3,17.3,68,0.00,CLR,,0.00,WeatherDisplay:10.37,2013-02-03 07:56:00,
2013-02-03 09:58:00,63.5,52.7,29.59,SSW,202,26.5,26.5,68,0.00,CLR,,0.00,WeatherDisplay:10.37,2013-02-03 07:58:00,
2013-02-03 09:59:00,63.3,52.2,29.59,ESE,112,27.6,27.6,67,0.00,CLR,,0.00,WeatherDisplay:10.37,2013-02-03 07:59:00,
2013-02-03 10:00:00,63.3,52.2,29.59,SSW,202,22.1,22.1,67,0.00,CLR,,0.00,WeatherDisplay:10.37,2013-02-03 08:00:00,
2013-02-03 10:02:00,63.3,52.2,29.59,SE,135,29.9,29.9,67,0.00,CLR,,0.00,WeatherDisplay:10.37,2013-02-03 08:02:00,
2013-02-03 10:03:00,63.3,52.2,29.59,SE,135,27.6,27.6,67,0.00,CLR,,0.00,WeatherDisplay:10.37,2013-02-03 08:03:00,
2013-02-03 10:04:00,63.3,52.2,29.59,SSE,158,27.6,27.6,67,0.00,CLR,,0.00,WeatherDisplay:10.37,2013-02-03 08:04:00,
2013-02-03 10:06:00,63.5,52.3,29.59,SSE,158,13.8,13.8,67,0.00,CLR,,0.00,WeatherDisplay:10.37,2013-02-03 08:06:00,
2013-02-03 10:07:00,63.5,52.3,29.59,SSE,158,25.3,25.3,67,0.00,CLR,,0.00,WeatherDisplay:10.37,2013-02-03 08:07:00,
2013-02-03 10:08:00,63.5,52.3,29.59,SSE,158,23.0,23.0,67,0.00,CLR,,0.00,WeatherDisplay:10.37,2013-02-03 08:08:00,
2013-02-03 10:09:00,63.5,52.3,29.59,South,180,27.6,27.6,67,0.00,CLR,,0.00,WeatherDisplay:10.37,2013-02-03 08:09:00,
2013-02-03 10:11:00,63.7,52.1,29.59,SSE,158,27.6,27.6,66,0.00,CLR,,0.00,WeatherDisplay:10.37,2013-02-03 08:11:00,
2013-02-03 10:12:00,63.7,52.1,29.59,South,180,36.9,36.9,66,0.00,CLR,,0.00,WeatherDisplay:10.37,2013-02-03 08:12:00,
2013-02-03 10:13:00,63.5,51.9,29.59,SE,135,36.8,36.8,66,0.00,CLR,,0.00,WeatherDisplay:10.37,2013-02-03 08:13:00,
2013-02-03 10:14:00,63.7,52.1,29.59,South,180,17.3,17.3,66,0.00,CLR,,0.00,WeatherDisplay:10.37,2013-02-03 08:14:00,
2013-02-03 10:17:00,63.9,52.3,29.59,SSE,158,9.2,9.2,66,0.00,CLR,,0.00,WeatherDisplay:10.37,2013-02-03 08:17:00,
2013-02-03 10:18:00,64.4,52.4,29.59,SSE,158,22.1,22.1,65,0.00,CLR,,0.00,WeatherDisplay:10.37,2013-02-03 08:18:00,
2013-02-03 10:19:00,64.2,51.8,29.59,SE,135,21.9,21.9,64,0.00,CLR,,0.00,WeatherDisplay:10.37,2013-02-03 08:19:00,
2013-02-03 10:22:00,64.4,51.5,29.59,SSE,158,21.9,21.9,63,0.00,CLR,,0.00,WeatherDisplay:10.37,2013-02-03 08:22:00,
2013-02-03 10:23:00,64.4,51.5,29.59,SSE,158,20.7,20.7,63,0.00,CLR,,0.00,WeatherDisplay:10.37,2013-02-03 08:23:00,
2013-02-03 10:24:00,64.6,51.7,29.59,SSE,158,29.4,29.4,63,0.00,CLR,,0.00,WeatherDisplay:10.37,2013-02-03 08:24:00,
2013-02-03 10:27:00,64.8,51.9,29.59,SSW,202,11.5,11.5,63,0.00,CLR,,0.00,WeatherDisplay:10.37,2013-02-03 08:27:00,
2013-02-03 10:28:00,64.8,51.4,29.59,South,180,15.0,15.0,62,0.00,CLR,,0.00,WeatherDisplay:10.37,2013-02-03 08:28:00,
2013-02-03 10:29:00,64.8,51.0,29.59,South,180,25.6,25.6,61,0.00,CLR,,0.00,WeatherDisplay:10.37,2013-02-03 08:29:00,
2013-02-03 10:33:00,64.6,50.4,29.62,SSE,158,19.9,19.9,60,0.00,CLR,,0.00,WeatherDisplay:10.37,2013-02-03 08:33:00,
2013-02-03 10:34:00,64.4,50.7,29.62,SSE,158,19.6,19.6,61,0.00,CLR,,0.00,WeatherDisplay:10.37,2013-02-03 08:34:00,
2013-02-03 10:38:00,64.8,51.0,29.62,SSE,158,24.2,24.2,61,0.00,CLR,,0.00,WeatherDisplay:10.37,2013-02-03 08:38:00,
2013-02-03 10:39:00,64.8,51.0,29.62,South,180,11.5,11.5,61,0.00,CLR,,0.00,WeatherDisplay:10.37,2013-02-03 08:39:00,
2013-02-03 10:43:00,65.3,50.6,29.62,SE,135,23.0,23.0,59,0.00,CLR,,0.00,WeatherDisplay:10.37,2013-02-03 08:43:00,
2013-02-03 10:44:00,65.3,50.6,29.62,SE,135,25.1,25.1,59,0.00,CLR,,0.00,WeatherDisplay:10.37,2013-02-03 08:44:00,
2013-02-03 10:45:00,65.3,50.6,29.62,WNW,292,12.7,15.2,59,0.00,CLR,,0.00,WeatherDisplay:10.37,2013-02-03 08:45:00,
2013-02-03 10:48:00,64.6,49.9,29.59,SSE,158,27.6,27.6,59,0.00,CLR,,0.00,WeatherDisplay:10.37,2013-02-03 08:48:00,
2013-02-03 10:49:00,64.6,49.9,29.59,South,180,19.6,19.6,59,0.00,CLR,,0.00,WeatherDisplay:10.37,2013-02-03 08:49:00,
2013-02-03 10:50:00,64.7,50.0,29.59,SE,145,14.0,30.0,59,0.00,CLR,,0.00,WeatherDisplay:10.37,2013-02-03 08:50:00,
2013-02-03 10:53:00,65.1,50.0,29.59,WSW,248,17.3,17.3,58,0.00,CLR,,0.00,WeatherDisplay:10.37,2013-02-03 08:53:00,
2013-02-03 10:54:00,65.5,49.8,29.59,South,180,10.7,10.7,57,0.00,CLR,,0.00,WeatherDisplay:10.37,2013-02-03 08:54:00,
2013-02-03 10:55:00,65.7,50.5,29.59,SSE,158,10.4,10.4,58,0.00,CLR,,0.00,WeatherDisplay:10.37,2013-02-03 08:55:00,
2013-02-03 10:58:00,65.7,49.5,29.59,SE,135,11.5,14.3,56,0.00,CLR,,0.00,WeatherDisplay:10.37,2013-02-03 08:58:00,
2013-02-03 10:59:00,65.7,49.5,29.59,ESE,112,17.3,17.3,56,0.00,CLR,,0.00,WeatherDisplay:10.37,2013-02-03 08:59:00,
2013-02-03 11:00:00,65.5,49.4,29.59,SSE,158,19.6,19.6,56,0.00,CLR,,0.00,WeatherDisplay:10.37,2013-02-03 09:00:00,
2013-02-03 11:04:00,65.3,49.2,29.62,SSE,158,24.2,24.2,56,0.00,CLR,,0.00,WeatherDisplay:10.37,2013-02-03 09:04:00,
2013-02-03 11:05:00,65.5,49.4,29.62,SSE,158,23.0,23.0,56,0.00,CLR,,0.00,WeatherDisplay:10.37,2013-02-03 09:05:00,
2013-02-03 11:09:00,65.8,49.7,29.62,SSE,158,23.7,23.7,56,0.00,CLR,,0.00,WeatherDisplay:10.37,2013-02-03 09:09:00,
2013-02-03 11:10:00,65.7,49.5,29.62,SSE,158,20.7,20.7,56,0.00,CLR,,0.00,WeatherDisplay:10.37,2013-02-03 09:10:00,
2013-02-03 11:14:00,66.0,49.4,29.62,SSE,158,26.5,26.5,55,0.00,CLR,,0.00,WeatherDisplay:10.37,2013-02-03 09:14:00,
2013-02-03 11:15:00,66.0,49.4,29.62,SSE,158,26.5,26.5,55,0.00,CLR,,0.00,WeatherDisplay:10.37,2013-02-03 09:15:00,
2013-02-03 11:19:00,66.2,49.1,29.62,SE,135,19.6,19.6,54,0.00,CLR,,0.00,WeatherDisplay:10.37,2013-02-03 09:19:00,
2013-02-03 11:20:00,66.2,49.1,29.62,SSE,158,23.0,23.0,54,0.00,CLR,,0.00,WeatherDisplay:10.37,2013-02-03 09:20:00,
2013-02-03 11:24:00,66.0,47.4,29.62,South,180,26.5,26.5,51,0.00,CLR,,0.00,WeatherDisplay:10.37,2013-02-03 09:24:00,
2013-02-03 11:25:00,66.0,47.4,29.62,SSE,158,26.5,26.5,51,0.00,CLR,,0.00,WeatherDisplay:10.37,2013-02-03 09:25:00,
2013-02-03 11:29:00,66.6,48.4,29.62,SSE,158,15.0,15.0,52,0.00,CLR,,0.00,WeatherDisplay:10.37,2013-02-03 09:29:00,
2013-02-03 11:30:00,66.6,48.4,29.62,SSE,159,10.0,24.0,52,0.00,CLR,,0.00,WeatherDisplay:10.37,2013-02-03 09:30:00,
2013-02-03 11:34:00,67.3,47.5,29.62,SSE,158,21.9,21.9,49,0.00,CLR,,0.00,WeatherDisplay:10.37,2013-02-03 09:34:00,
2013-02-03 11:35:00,67.3,47.5,29.62,SSE,158,21.9,21.9,49,0.00,CLR,,0.00,WeatherDisplay:10.37,2013-02-03 09:35:00,
2013-02-03 11:39:00,66.6,46.3,29.62,SSE,158,21.9,21.9,48,0.00,CLR,,0.00,WeatherDisplay:10.37,2013-02-03 09:39:00,
2013-02-03 11:40:00,66.6,46.3,29.62,SSE,158,24.2,24.2,48,0.00,CLR,,0.00,WeatherDisplay:10.37,2013-02-03 09:40:00,
2013-02-03 11:45:00,66.7,46.4,29.62,SSE,158,15.0,16.8,48,0.00,CLR,,0.00,WeatherDisplay:10.37,2013-02-03 09:45:00,
2013-02-03 11:46:00,66.9,46.6,29.62,SSW,202,20.7,20.7,48,0.00,CLR,,0.00,WeatherDisplay:10.37,2013-02-03 09:46:00,
2013-02-03 11:50:00,66.9,46.6,29.62,South,175,8.0,26.0,48,0.00,CLR,,0.00,WeatherDisplay:10.37,2013-02-03 09:50:00,
2013-02-03 11:51:00,66.7,46.4,29.62,SSE,158,25.3,25.3,48,0.00,CLR,,0.00,WeatherDisplay:10.37,2013-02-03 09:51:00,
2013-02-03 11:55:00,66.9,46.6,29.62,SE,135,17.3,17.3,48,0.00,CLR,,0.00,WeatherDisplay:10.37,2013-02-03 09:55:00,
2013-02-03 11:56:00,66.7,46.4,29.62,South,180,23.0,23.0,48,0.00,CLR,,0.00,WeatherDisplay:10.37,2013-02-03 09:56:00,
2013-02-03 12:00:00,66.7,47.0,29.62,SSE,158,17.3,17.3,49,0.00,CLR,,0.00,WeatherDisplay:10.37,2013-02-03 10:00:00,
2013-02-03 12:01:00,66.7,47.0,29.62,East,90,12.7,12.7,49,0.00,CLR,,0.00,WeatherDisplay:10.37,2013-02-03 10:01:00,
2013-02-03 12:05:00,66.9,46.6,29.62,SE,135,20.7,20.7,48,0.00,CLR,,0.00,WeatherDisplay:10.37,2013-02-03 10:05:00,
2013-02-03 12:06:00,67.1,46.7,29.62,SE,135,20.7,20.7,48,0.00,CLR,,0.00,WeatherDisplay:10.37,2013-02-03 10:06:00,
2013-02-03 12:10:00,67.5,47.1,29.62,SSE,158,16.3,16.3,48,0.00,CLR,,0.00,WeatherDisplay:10.37,2013-02-03 10:10:00,
2013-02-03 12:11:00,67.5,47.1,29.62,SSE,158,16.3,16.3,48,0.00,CLR,,0.00,WeatherDisplay:10.37,2013-02-03 10:11:00,
2013-02-03 12:15:00,66.7,47.0,29.62,SSW,202,29.9,29.9,49,0.00,CLR,,0.00,WeatherDisplay:10.37,2013-02-03 10:15:00,
2013-02-03 12:16:00,66.7,47.0,29.59,SSW,202,29.9,29.9,49,0.00,CLR,,0.00,WeatherDisplay:10.37,2013-02-03 10:16:00,
2013-02-03 12:21:00,66.7,46.4,29.59,SSE,158,26.5,26.5,48,0.00,CLR,,0.00,WeatherDisplay:10.37,2013-02-03 10:21:00,
2013-02-03 12:26:00,66.7,46.4,29.59,SSW,202,31.1,31.1,48,0.00,CLR,,0.00,WeatherDisplay:10.37,2013-02-03 10:26:00,
2013-02-03 12:31:00,66.7,47.0,29.59,SSE,158,25.3,25.3,49,0.00,CLR,,0.00,WeatherDisplay:10.37,2013-02-03 10:31:00,
2013-02-03 12:32:00,66.7,47.0,29.59,South,180,25.3,25.3,49,0.00,CLR,,0.00,WeatherDisplay:10.37,2013-02-03 10:32:00,
2013-02-03 12:36:00,66.6,46.8,29.59,South,180,17.3,17.3,49,0.00,CLR,,0.00,WeatherDisplay:10.37,2013-02-03 10:36:00,
2013-02-03 12:37:00,66.6,46.8,29.59,SSE,158,17.3,17.3,49,0.00,CLR,,0.00,WeatherDisplay:10.37,2013-02-03 10:37:00,
2013-02-03 12:41:00,66.0,47.4,29.59,SSE,158,25.3,25.3,51,0.00,CLR,,0.00,WeatherDisplay:10.37,2013-02-03 10:41:00,
2013-02-03 12:42:00,66.2,47.5,29.59,SSE,158,23.0,23.0,51,0.00,CLR,,0.00,WeatherDisplay:10.37,2013-02-03 10:42:00,
2013-02-03 12:46:00,66.6,48.4,29.59,SE,135,18.5,18.5,52,0.00,CLR,,0.00,WeatherDisplay:10.37,2013-02-03 10:46:00,
2013-02-03 12:47:00,66.7,48.0,29.59,SSW,202,18.4,18.4,51,0.00,CLR,,0.00,WeatherDisplay:10.37,2013-02-03 10:47:00,
2013-02-03 12:51:00,66.2,48.0,29.59,ESE,112,25.3,25.3,52,0.00,CLR,,0.00,WeatherDisplay:10.37,2013-02-03 10:51:00,
2013-02-03 12:52:00,66.2,48.0,29.59,SSE,158,25.3,25.3,52,0.00,CLR,,0.00,WeatherDisplay:10.37,2013-02-03 10:52:00,
2013-02-03 12:56:00,66.6,48.4,29.59,SSW,202,25.3,25.3,52,0.00,CLR,,0.00,WeatherDisplay:10.37,2013-02-03 10:56:00,
2013-02-03 12:57:00,66.2,48.0,29.59,SSW,202,24.2,24.2,52,0.00,CLR,,0.00,WeatherDisplay:10.37,2013-02-03 10:57:00,
2013-02-03 13:02:00,66.2,48.6,29.59,SSE,158,16.1,16.1,53,0.00,CLR,,0.00,WeatherDisplay:10.37,2013-02-03 11:02:00,
2013-02-03 13:07:00,66.2,48.0,29.59,SSE,158,19.6,19.6,52,0.00,CLR,,0.00,WeatherDisplay:10.37,2013-02-03 11:07:00,
2013-02-03 13:12:00,66.0,48.4,29.59,SSE,158,21.9,21.9,53,0.00,CLR,,0.00,WeatherDisplay:10.37,2013-02-03 11:12:00,
2013-02-03 13:13:00,66.4,48.7,29.59,SSE,158,21.9,21.9,53,0.00,CLR,,0.00,WeatherDisplay:10.37,2013-02-03 11:13:00,
2013-02-03 13:17:00,66.0,48.9,29.56,SSE,158,17.3,17.3,54,0.00,CLR,,0.00,WeatherDisplay:10.37,2013-02-03 11:17:00,
2013-02-03 13:18:00,66.0,48.9,29.56,SW,225,27.6,27.6,54,0.00,CLR,,0.00,WeatherDisplay:10.37,2013-02-03 11:18:00,
2013-02-03 13:22:00,65.5,47.9,29.56,SSE,158,32.0,32.0,53,0.00,CLR,,0.00,WeatherDisplay:10.37,2013-02-03 11:22:00,
2013-02-03 13:23:00,65.5,47.9,29.56,SSW,202,32.2,32.2,53,0.00,CLR,,0.00,WeatherDisplay:10.37,2013-02-03 11:23:00,
2013-02-03 13:27:00,65.1,48.5,29.56,SSE,158,34.5,34.5,55,0.00,CLR,,0.00,WeatherDisplay:10.37,2013-02-03 11:27:00,
2013-02-03 13:28:00,65.5,48.9,29.56,SSW,202,23.0,23.0,55,0.00,CLR,,0.00,WeatherDisplay:10.37,2013-02-03 11:28:00,
2013-02-03 13:29:00,65.7,49.0,29.56,SE,135,23.0,23.0,55,0.00,CLR,,0.00,WeatherDisplay:10.37,2013-02-03 11:29:00,
2013-02-03 13:33:00,65.5,48.9,29.56,SSE,158,26.5,26.5,55,0.00,CLR,,0.00,WeatherDisplay:10.37,2013-02-03 11:33:00,
2013-02-03 13:34:00,65.8,49.2,29.56,SSE,158,11.8,11.8,55,0.00,CLR,,0.00,WeatherDisplay:10.37,2013-02-03 11:34:00,
2013-02-03 13:38:00,66.2,49.1,29.56,South,180,33.4,33.4,54,0.00,CLR,,0.00,WeatherDisplay:10.37,2013-02-03 11:38:00,
2013-02-03 13:39:00,65.8,48.7,29.56,SSE,158,33.4,33.4,54,0.00,CLR,,0.00,WeatherDisplay:10.37,2013-02-03 11:39:00,
2013-02-03 13:44:00,65.7,48.6,29.56,SSE,158,25.3,25.3,54,0.00,CLR,,0.00,WeatherDisplay:10.37,2013-02-03 11:44:00,
2013-02-03 13:49:00,65.8,48.7,29.56,SSE,158,24.4,24.4,54,0.00,CLR,,0.00,WeatherDisplay:10.37,2013-02-03 11:49:00,
2013-02-03 13:54:00,65.7,48.6,29.56,SSE,158,26.5,26.5,54,0.00,CLR,,0.00,WeatherDisplay:10.37,2013-02-03 11:54:00,
2013-02-03 13:55:00,65.7,48.6,29.56,SE,135,28.9,28.9,54,0.00,CLR,,0.00,WeatherDisplay:10.37,2013-02-03 11:55:00,
2013-02-03 13:59:00,65.5,48.4,29.56,WNW,292,29.9,29.9,54,0.00,CLR,,0.00,WeatherDisplay:10.37,2013-02-03 11:59:00,
2013-02-03 14:00:00,65.7,48.1,29.56,South,180,35.1,35.1,53,0.00,CLR,,0.00,WeatherDisplay:10.37,2013-02-03 12:00:00,
2013-02-03 14:04:00,65.8,47.7,29.56,SE,135,27.3,27.3,52,0.00,CLR,,0.00,WeatherDisplay:10.37,2013-02-03 12:04:00,
2013-02-03 14:05:00,65.8,48.2,29.56,South,180,28.8,28.8,53,0.00,CLR,,0.00,WeatherDisplay:10.37,2013-02-03 12:05:00,
2013-02-03 14:09:00,65.1,48.1,29.56,SSE,158,33.4,33.4,54,0.00,CLR,,0.00,WeatherDisplay:10.37,2013-02-03 12:09:00,
2013-02-03 14:10:00,65.1,48.1,29.56,SSE,158,36.8,36.8,54,0.00,CLR,,0.00,WeatherDisplay:10.37,2013-02-03 12:10:00,
2013-02-03 14:15:00,65.8,48.7,29.56,SSE,158,25.3,25.3,54,0.00,CLR,,0.00,WeatherDisplay:10.37,2013-02-03 12:15:00,
2013-02-03 14:20:00,65.8,47.7,29.53,SSE,167,16.0,30.0,52,0.00,CLR,,0.00,WeatherDisplay:10.37,2013-02-03 12:20:00,
2013-02-03 14:21:00,65.8,48.2,29.53,ESE,112,29.9,29.9,53,0.00,CLR,,0.00,WeatherDisplay:10.37,2013-02-03 12:21:00,
2013-02-03 14:25:00,65.5,47.9,29.53,South,180,17.3,17.3,53,0.00,CLR,,0.00,WeatherDisplay:10.37,2013-02-03 12:25:00,
2013-02-03 14:26:00,65.7,48.1,29.53,SSE,158,30.4,30.4,53,0.00,CLR,,0.00,WeatherDisplay:10.37,2013-02-03 12:26:00,
2013-02-03 14:30:00,65.5,48.4,29.53,SSE,158,34.5,34.5,54,0.00,CLR,,0.00,WeatherDisplay:10.37,2013-02-03 12:30:00,
2013-02-03 14:31:00,65.7,48.6,29.56,SE,135,19.6,19.6,54,0.00,CLR,,0.00,WeatherDisplay:10.37,2013-02-03 12:31:00,
2013-02-03 14:35:00,65.7,47.5,29.56,SSW,202,29.1,29.1,52,0.00,CLR,,0.00,WeatherDisplay:10.37,2013-02-03 12:35:00,
2013-02-03 14:36:00,65.7,47.5,29.56,SSW,202,28.8,28.8,52,0.00,CLR,,0.00,WeatherDisplay:10.37,2013-02-03 12:36:00,
2013-02-03 14:37:00,65.7,47.5,29.56,SSE,158,25.3,25.3,52,0.00,CLR,,0.00,WeatherDisplay:10.37,2013-02-03 12:37:00,
2013-02-03 14:40:00,65.5,47.4,29.56,SSE,158,36.2,36.2,52,0.00,CLR,,0.00,WeatherDisplay:10.37,2013-02-03 12:40:00,
2013-02-03 14:41:00,65.5,47.4,29.56,SSE,158,36.8,36.8,52,0.00,CLR,,0.00,WeatherDisplay:10.37,2013-02-03 12:41:00,
2013-02-03 14:42:00,65.3,47.2,29.56,South,180,34.5,34.5,52,0.00,CLR,,0.00,WeatherDisplay:10.37,2013-02-03 12:42:00,
2013-02-03 14:45:00,65.1,47.6,29.56,SSE,158,37.5,37.5,53,0.00,CLR,,0.00,WeatherDisplay:10.37,2013-02-03 12:45:00,
2013-02-03 14:46:00,65.1,47.6,29.56,SSE,158,38.0,38.0,53,0.00,CLR,,0.00,WeatherDisplay:10.37,2013-02-03 12:46:00,
2013-02-03 14:47:00,65.1,48.1,29.56,SSE,158,29.9,29.9,54,0.00,CLR,,0.00,WeatherDisplay:10.37,2013-02-03 12:47:00,
2013-02-03 14:51:00,65.5,47.9,29.56,SSE,158,26.5,26.5,53,0.00,CLR,,0.00,WeatherDisplay:10.37,2013-02-03 12:51:00,
2013-02-03 14:52:00,65.3,47.7,29.56,SSE,158,34.6,34.6,53,0.00,CLR,,0.00,WeatherDisplay:10.37,2013-02-03 12:52:00,
2013-02-03 14:56:00,65.1,48.1,29.56,SSW,202,26.5,26.5,54,0.00,CLR,,0.00,WeatherDisplay:10.37,2013-02-03 12:56:00,
2013-02-03 14:58:00,65.1,48.1,29.56,SSW,202,23.0,23.0,54,0.00,CLR,,0.00,WeatherDisplay:10.37,2013-02-03 12:58:00,
2013-02-03 15:01:00,65.1,48.1,29.53,ESE,112,26.5,26.5,54,0.00,CLR,,0.00,WeatherDisplay:10.37,2013-02-03 13:01:00,
2013-02-03 15:02:00,65.1,48.1,29.53,ESE,112,24.2,24.2,54,0.00,CLR,,0.00,WeatherDisplay:10.37,2013-02-03 13:02:00,
2013-02-03 15:03:00,65.3,48.2,29.53,SSE,158,19.7,19.7,54,0.00,CLR,,0.00,WeatherDisplay:10.37,2013-02-03 13:03:00,
2013-02-03 15:06:00,64.9,47.9,29.53,SSE,158,30.8,30.8,54,0.00,CLR,,0.00,WeatherDisplay:10.37,2013-02-03 13:06:00,
2013-02-03 15:07:00,64.8,47.7,29.53,SSW,202,31.1,31.1,54,0.00,CLR,,0.00,WeatherDisplay:10.37,2013-02-03 13:07:00,
2013-02-03 15:08:00,64.8,47.7,29.53,SE,135,38.0,38.0,54,0.00,CLR,,0.00,WeatherDisplay:10.37,2013-02-03 13:08:00,
2013-02-03 15:11:00,64.6,48.0,29.53,SSE,158,27.6,27.6,55,0.00,CLR,,0.00,WeatherDisplay:10.37,2013-02-03 13:11:00,
2013-02-03 15:12:00,64.8,48.2,29.53,SSE,158,29.9,29.9,55,0.00,CLR,,0.00,WeatherDisplay:10.37,2013-02-03 13:12:00,
2013-02-03 15:13:00,64.8,48.2,29.53,SSE,158,29.9,29.9,55,0.00,CLR,,0.00,WeatherDisplay:10.37,2013-02-03 13:13:00,
2013-02-03 15:16:00,64.6,48.0,29.56,SE,135,27.6,27.6,55,0.00,CLR,,0.00,WeatherDisplay:10.37,2013-02-03 13:16:00,
2013-02-03 15:17:00,64.6,48.5,29.56,SE,135,30.6,30.6,56,0.00,CLR,,0.00,WeatherDisplay:10.37,2013-02-03 13:17:00,
2013-02-03 15:18:00,64.4,48.4,29.56,SSE,158,31.1,31.1,56,0.00,CLR,,0.00,WeatherDisplay:10.37,2013-02-03 13:18:00,
2013-02-03 15:21:00,64.6,48.5,29.56,SSW,202,25.3,25.3,56,0.00,CLR,,0.00,WeatherDisplay:10.37,2013-02-03 13:21:00,
2013-02-03 15:22:00,64.6,48.5,29.56,SSE,158,25.3,25.3,56,0.00,CLR,,0.00,WeatherDisplay:10.37,2013-02-03 13:22:00,
2013-02-03 15:24:00,64.6,49.0,29.56,SSE,158,20.7,20.7,57,0.00,CLR,,0.00,WeatherDisplay:10.37,2013-02-03 13:24:00,
2013-02-03 15:26:00,64.6,49.0,29.56,SSE,158,25.3,25.3,57,0.00,CLR,,0.00,WeatherDisplay:10.37,2013-02-03 13:26:00,
2013-02-03 15:27:00,64.4,48.8,29.56,ESE,112,29.9,29.9,57,0.00,CLR,,0.00,WeatherDisplay:10.37,2013-02-03 13:27:00,
2013-02-03 15:29:00,64.2,49.6,29.56,SSW,202,27.6,27.6,59,0.00,CLR,,0.00,WeatherDisplay:10.37,2013-02-03 13:29:00,
2013-02-03 15:31:00,64.4,49.8,29.56,SSE,158,18.5,18.5,59,0.00,CLR,,0.00,WeatherDisplay:10.37,2013-02-03 13:31:00,
2013-02-03 15:32:00,64.4,49.8,29.56,SE,135,19.6,19.6,59,0.00,CLR,,0.00,WeatherDisplay:10.37,2013-02-03 13:32:00,
2013-02-03 15:34:00,64.4,49.8,29.56,SSE,158,17.3,17.3,59,0.00,CLR,,0.00,WeatherDisplay:10.37,2013-02-03 13:34:00,
2013-02-03 15:36:00,64.4,50.2,29.56,SSE,158,19.6,19.6,60,0.00,CLR,,0.00,WeatherDisplay:10.37,2013-02-03 13:36:00,
2013-02-03 15:37:00,64.4,50.2,29.56,SE,135,27.6,27.6,60,0.00,CLR,,0.00,WeatherDisplay:10.37,2013-02-03 13:37:00,
2013-02-03 15:38:00,64.4,50.2,29.56,SE,135,13.8,13.8,60,0.00,CLR,,0.00,WeatherDisplay:10.37,2013-02-03 13:38:00,
2013-02-03 15:39:00,64.4,50.2,29.56,ESE,112,17.0,17.0,60,0.00,CLR,,0.00,WeatherDisplay:10.37,2013-02-03 13:39:00,
2013-02-03 15:41:00,64.2,50.5,29.56,SE,135,25.3,25.3,61,0.00,CLR,,0.00,WeatherDisplay:10.37,2013-02-03 13:41:00,
2013-02-03 15:43:00,64.0,50.3,29.56,SSE,158,24.2,24.2,61,0.00,CLR,,0.00,WeatherDisplay:10.37,2013-02-03 13:43:00,
2013-02-03 15:45:00,64.0,50.3,29.56,SSE,149,14.0,28.0,61,0.00,CLR,,0.00,WeatherDisplay:10.37,2013-02-03 13:45:00,
2013-02-03 15:47:00,64.2,50.5,29.56,ESE,112,19.6,19.6,61,0.00,CLR,,0.00,WeatherDisplay:10.37,2013-02-03 13:47:00,
2013-02-03 15:48:00,63.9,49.7,29.56,SSE,158,28.8,28.8,60,0.00,CLR,,0.00,WeatherDisplay:10.37,2013-02-03 13:48:00,
2013-02-03 15:50:00,63.9,49.7,29.56,SSE,153,20.0,29.0,60,0.00,CLR,,0.00,WeatherDisplay:10.37,2013-02-03 13:50:00,
2013-02-03 15:52:00,64.2,50.0,29.56,SE,135,12.7,12.7,60,0.00,CLR,,0.00,WeatherDisplay:10.37,2013-02-03 13:52:00,
2013-02-03 15:53:00,64.4,49.8,29.56,SSE,158,25.6,25.6,59,0.00,CLR,,0.00,WeatherDisplay:10.37,2013-02-03 13:53:00,
2013-02-03 15:55:00,64.2,49.6,29.56,SE,135,17.3,17.3,59,0.00,CLR,,0.00,WeatherDisplay:10.37,2013-02-03 13:55:00,
2013-02-03 15:57:00,64.0,49.4,29.56,SSE,158,33.4,33.4,59,0.00,CLR,,0.00,WeatherDisplay:10.37,2013-02-03 13:57:00,
2013-02-03 15:58:00,63.9,49.2,29.56,SE,135,27.6,27.6,59,0.00,CLR,,0.00,WeatherDisplay:10.37,2013-02-03 13:58:00,
2013-02-03 16:00:00,64.2,50.0,29.56,East,90,11.5,11.5,60,0.00,CLR,,0.00,WeatherDisplay:10.37,2013-02-03 14:00:00,
2013-02-03 16:02:00,64.0,49.9,29.56,South,180,25.3,25.3,60,0.00,CLR,,0.00,WeatherDisplay:10.37,2013-02-03 14:02:00,
2013-02-03 16:03:00,64.0,49.9,29.56,SE,135,29.9,29.9,60,0.00,CLR,,0.00,WeatherDisplay:10.37,2013-02-03 14:03:00,
2013-02-03 16:05:00,64.0,49.9,29.56,SSE,158,22.8,22.8,60,0.00,CLR,,0.00,WeatherDisplay:10.37,2013-02-03 14:05:00,
2013-02-03 16:07:00,64.0,49.9,29.56,SSE,158,20.7,20.7,60,0.00,CLR,,0.00,WeatherDisplay:10.37,2013-02-03 14:07:00,
2013-02-03 16:08:00,64.0,49.9,29.56,SSE,158,19.6,19.6,60,0.00,CLR,,0.00,WeatherDisplay:10.37,2013-02-03 14:08:00,
2013-02-03 16:09:00,64.2,50.0,29.56,SW,225,19.6,19.6,60,0.00,CLR,,0.00,WeatherDisplay:10.37,2013-02-03 14:09:00,
2013-02-03 16:10:00,64.2,50.0,29.56,SSE,158,23.0,23.0,60,0.00,CLR,,0.00,WeatherDisplay:10.37,2013-02-03 14:10:00,
2013-02-03 16:12:00,64.2,50.0,29.56,ESE,112,15.0,15.0,60,0.00,CLR,,0.00,WeatherDisplay:10.37,2013-02-03 14:12:00,
2013-02-03 16:13:00,64.0,49.9,29.56,SSE,158,20.7,20.7,60,0.00,CLR,,0.00,WeatherDisplay:10.37,2013-02-03 14:13:00,
2013-02-03 16:14:00,64.0,49.9,29.56,SSW,202,19.6,19.6,60,0.00,CLR,,0.00,WeatherDisplay:10.37,2013-02-03 14:14:00,
2013-02-03 16:15:00,64.0,49.9,29.56,SE,135,23.0,23.0,60,0.00,CLR,,0.00,WeatherDisplay:10.37,2013-02-03 14:15:00,
2013-02-03 16:17:00,64.0,49.9,29.56,SE,135,18.4,18.4,60,0.00,CLR,,0.00,WeatherDisplay:10.37,2013-02-03 14:17:00,
2013-02-03 16:18:00,64.0,49.9,29.56,SSE,158,17.3,17.3,60,0.00,CLR,,0.00,WeatherDisplay:10.37,2013-02-03 14:18:00,
2013-02-03 16:19:00,63.9,49.7,29.56,ESE,112,17.3,17.3,60,0.00,CLR,,0.00,WeatherDisplay:10.37,2013-02-03 14:19:00,
2013-02-03 16:20:00,63.9,49.7,29.56,SSE,158,23.0,23.0,60,0.00,CLR,,0.00,WeatherDisplay:10.37,2013-02-03 14:20:00,
2013-02-03 16:22:00,63.9,49.7,29.56,SSW,202,24.2,24.2,60,0.00,CLR,,0.00,WeatherDisplay:10.37,2013-02-03 14:22:00,
2013-02-03 16:23:00,63.9,49.7,29.56,SSE,158,24.2,24.2,60,0.00,CLR,,0.00,WeatherDisplay:10.37,2013-02-03 14:23:00,
2013-02-03 16:24:00,63.9,49.7,29.56,SSE,158,17.3,17.3,60,0.00,CLR,,0.00,WeatherDisplay:10.37,2013-02-03 14:24:00,
2013-02-03 16:25:00,63.9,49.7,29.56,SE,135,23.9,23.9,60,0.00,CLR,,0.00,WeatherDisplay:10.37,2013-02-03 14:25:00,
2013-02-03 16:27:00,63.9,50.1,29.56,SSE,158,25.3,25.3,61,0.00,CLR,,0.00,WeatherDisplay:10.37,2013-02-03 14:27:00,
2013-02-03 16:28:00,63.9,50.1,29.56,SW,225,19.6,19.6,61,0.00,CLR,,0.00,WeatherDisplay:10.37,2013-02-03 14:28:00,
2013-02-03 16:29:00,64.0,50.3,29.56,SSE,158,11.5,11.5,61,0.00,CLR,,0.00,WeatherDisplay:10.37,2013-02-03 14:29:00,
2013-02-03 16:31:00,63.9,50.1,29.56,SSE,158,23.0,23.0,61,0.00,CLR,,0.00,WeatherDisplay:10.37,2013-02-03 14:31:00,
2013-02-03 16:33:00,63.7,50.0,29.56,SE,135,26.5,26.5,61,0.00,CLR,,0.00,WeatherDisplay:10.37,2013-02-03 14:33:00,
2013-02-03 16:34:00,63.7,50.4,29.56,SSE,158,29.9,29.9,62,0.00,CLR,,0.00,WeatherDisplay:10.37,2013-02-03 14:34:00,
2013-02-03 16:36:00,63.7,50.8,29.56,SSE,158,25.3,25.3,63,0.00,CLR,,0.00,WeatherDisplay:10.37,2013-02-03 14:36:00,
2013-02-03 16:38:00,63.7,50.8,29.56,South,180,16.1,16.1,63,0.00,CLR,,0.00,WeatherDisplay:10.37,2013-02-03 14:38:00,
2013-02-03 16:40:00,63.5,50.7,29.56,SSE,158,13.8,13.8,63,0.00,CLR,,0.00,WeatherDisplay:10.37,2013-02-03 14:40:00,
2013-02-03 16:41:00,63.9,51.0,29.56,SW,225,10.4,10.4,63,0.00,CLR,,0.00,WeatherDisplay:10.37,2013-02-03 14:41:00,
2013-02-03 16:43:00,63.9,51.0,29.56,SSE,158,12.5,12.5,63,0.00,CLR,,0.00,WeatherDisplay:10.37,2013-02-03 14:43:00,
2013-02-03 16:45:00,63.5,50.7,29.56,SSE,158,26.5,26.5,63,0.00,CLR,,0.00,WeatherDisplay:10.37,2013-02-03 14:45:00,
2013-02-03 16:47:00,63.5,50.7,29.56,ESE,112,13.8,13.8,63,0.00,CLR,,0.00,WeatherDisplay:10.37,2013-02-03 14:47:00,
2013-02-03 16:48:00,63.5,51.1,29.56,SSE,158,19.6,19.6,64,0.00,CLR,,0.00,WeatherDisplay:10.37,2013-02-03 14:48:00,
2013-02-03 16:49:00,63.5,51.1,29.56,SSE,158,15.4,15.4,64,0.00,CLR,,0.00,WeatherDisplay:10.37,2013-02-03 14:49:00,
2013-02-03 16:50:00,63.3,51.3,29.56,ESE,112,21.9,21.9,65,0.00,CLR,,0.00,WeatherDisplay:10.37,2013-02-03 14:50:00,
2013-02-03 16:52:00,63.3,51.3,29.56,SSE,158,23.0,23.0,65,0.00,CLR,,0.00,WeatherDisplay:10.37,2013-02-03 14:52:00,
2013-02-03 16:53:00,63.5,51.5,29.56,SSE,158,17.3,17.3,65,0.00,CLR,,0.00,WeatherDisplay:10.37,2013-02-03 14:53:00,
2013-02-03 16:54:00,63.5,51.5,29.56,SE,135,11.5,11.5,65,0.00,CLR,,0.00,WeatherDisplay:10.37,2013-02-03 14:54:00,
2013-02-03 16:55:00,63.5,51.9,29.56,SSE,158,11.5,11.5,66,0.00,CLR,,0.00,WeatherDisplay:10.37,2013-02-03 14:55:00,
2013-02-03 16:57:00,63.1,51.6,29.56,SE,135,16.1,16.1,66,0.00,CLR,,0.00,WeatherDisplay:10.37,2013-02-03 14:57:00,
2013-02-03 16:58:00,63.1,52.0,29.56,SSW,202,19.6,19.6,67,0.00,CLR,,0.00,WeatherDisplay:10.37,2013-02-03 14:58:00,
2013-02-03 16:59:00,63.1,52.0,29.56,SSW,202,11.5,11.5,67,0.00,CLR,,0.00,WeatherDisplay:10.37,2013-02-03 14:59:00,
2013-02-03 17:01:00,62.8,52.1,29.56,SSE,158,25.3,25.3,68,0.00,CLR,,0.00,WeatherDisplay:10.37,2013-02-03 15:01:00,
2013-02-03 17:02:00,62.8,52.1,29.56,ESE,112,23.0,23.0,68,0.00,CLR,,0.00,WeatherDisplay:10.37,2013-02-03 15:02:00,
2013-02-03 17:04:00,62.8,52.5,29.56,ESE,112,26.5,26.5,69,0.00,CLR,,0.00,WeatherDisplay:10.37,2013-02-03 15:04:00,
2013-02-03 17:06:00,62.8,52.8,29.56,SSE,158,15.0,15.0,70,0.00,CLR,,0.00,WeatherDisplay:10.37,2013-02-03 15:06:00,
2013-02-03 17:07:00,62.6,53.1,29.56,SSE,158,17.3,17.3,71,0.00,CLR,,0.00,WeatherDisplay:10.37,2013-02-03 15:07:00,
2013-02-03 17:09:00,62.2,53.5,29.56,SE,135,19.6,19.6,73,0.00,CLR,,0.00,WeatherDisplay:10.37,2013-02-03 15:09:00,
2013-02-03 17:11:00,62.2,53.8,29.56,SSE,158,10.4,10.4,74,0.00,CLR,,0.00,WeatherDisplay:10.37,2013-02-03 15:11:00,
2013-02-03 17:12:00,62.1,53.7,29.56,SSW,202,12.1,12.1,74,0.00,CLR,,0.00,WeatherDisplay:10.37,2013-02-03 15:12:00,
2013-02-03 17:14:00,62.1,54.0,29.56,SSE,158,15.0,15.0,75,0.00,CLR,,0.00,WeatherDisplay:10.37,2013-02-03 15:14:00,
2013-02-03 17:16:00,62.1,54.0,29.56,SSE,158,16.3,16.3,75,0.00,CLR,,0.00,WeatherDisplay:10.37,2013-02-03 15:16:00,
2013-02-03 17:17:00,61.9,54.2,29.56,ESE,112,17.3,17.3,76,0.00,CLR,,0.00,WeatherDisplay:10.37,2013-02-03 15:17:00,
2013-02-03 17:19:00,61.7,54.4,29.56,SSE,158,21.9,21.9,77,0.00,CLR,,0.00,WeatherDisplay:10.37,2013-02-03 15:19:00,
2013-02-03 17:20:00,61.7,54.4,29.56,SSE,158,18.4,18.4,77,0.00,CLR,,0.00,WeatherDisplay:10.37,2013-02-03 15:20:00,
2013-02-03 17:21:00,61.7,54.8,29.56,South,180,19.6,19.6,78,0.00,CLR,,0.00,WeatherDisplay:10.37,2013-02-03 15:21:00,
2013-02-03 17:23:00,61.7,54.8,29.56,South,180,12.5,12.5,78,0.00,CLR,,0.00,WeatherDisplay:10.37,2013-02-03 15:23:00,
2013-02-03 17:24:00,61.5,54.6,29.56,SSE,158,23.0,23.0,78,0.00,CLR,,0.00,WeatherDisplay:10.37,2013-02-03 15:24:00,
2013-02-03 17:25:00,61.5,54.6,29.56,South,180,23.0,23.0,78,0.00,CLR,,0.00,WeatherDisplay:10.37,2013-02-03 15:25:00,
2013-02-03 17:26:00,61.3,54.8,29.56,SSE,158,17.3,17.3,79,0.00,CLR,,0.00,WeatherDisplay:10.37,2013-02-03 15:26:00,
2013-02-03 17:28:00,61.3,54.8,29.56,SSE,158,23.0,23.0,79,0.00,CLR,,0.00,WeatherDisplay:10.37,2013-02-03 15:28:00,
2013-02-03 17:30:00,61.3,55.1,29.56,South,180,17.3,17.3,80,0.00,CLR,,0.00,WeatherDisplay:10.37,2013-02-03 15:30:00,
2013-02-03 17:31:00,61.2,54.9,29.59,ENE,68,16.1,16.1,80,0.00,CLR,,0.00,WeatherDisplay:10.37,2013-02-03 15:31:00,
2013-02-03 17:33:00,61.2,54.9,29.59,SSE,158,12.7,12.7,80,0.00,CLR,,0.00,WeatherDisplay:10.37,2013-02-03 15:33:00,
2013-02-03 17:35:00,61.2,54.9,29.59,SSE,158,15.0,15.0,80,0.00,CLR,,0.00,WeatherDisplay:10.37,2013-02-03 15:35:00,
2013-02-03 17:37:00,61.0,55.1,29.59,SSE,158,16.1,16.1,81,0.00,CLR,,0.00,WeatherDisplay:10.37,2013-02-03 15:37:00,
2013-02-03 17:38:00,61.0,55.1,29.59,SSW,202,19.4,19.4,81,0.00,CLR,,0.00,WeatherDisplay:10.37,2013-02-03 15:38:00,
2013-02-03 17:40:00,61.0,55.4,29.59,SE,135,15.0,15.0,82,0.00,CLR,,0.00,WeatherDisplay:10.37,2013-02-03 15:40:00,
2013-02-03 17:42:00,60.8,55.3,29.59,SSE,158,11.5,11.5,82,0.00,CLR,,0.00,WeatherDisplay:10.37,2013-02-03 15:42:00,
2013-02-03 17:43:00,60.8,55.3,29.59,SSE,158,17.3,17.3,82,0.00,CLR,,0.00,WeatherDisplay:10.37,2013-02-03 15:43:00,
2013-02-03 17:45:00,60.8,55.3,29.59,SSW,202,12.7,12.7,82,0.00,CLR,,0.00,WeatherDisplay:10.37,2013-02-03 15:45:00,
2013-02-03 17:47:00,60.6,55.4,29.59,SE,135,10.4,10.4,83,0.00,CLR,,0.00,WeatherDisplay:10.37,2013-02-03 15:47:00,
2013-02-03 17:49:00,60.6,55.4,29.59,SSE,158,16.8,16.8,83,0.00,CLR,,0.00,WeatherDisplay:10.37,2013-02-03 15:49:00,
2013-02-03 17:50:00,60.6,55.8,29.59,SSE,158,17.3,17.3,84,0.00,CLR,,0.00,WeatherDisplay:10.37,2013-02-03 15:50:00,
2013-02-03 17:51:00,60.6,55.8,29.59,SSE,158,13.8,13.8,84,0.00,CLR,,0.00,WeatherDisplay:10.37,2013-02-03 15:51:00,
2013-02-03 17:52:00,60.6,55.8,29.59,SSE,158,13.8,13.8,84,0.00,CLR,,0.00,WeatherDisplay:10.37,2013-02-03 15:52:00,
2013-02-03 17:54:00,60.4,55.6,29.59,SSE,158,13.8,13.8,84,0.00,CLR,,0.00,WeatherDisplay:10.37,2013-02-03 15:54:00,
2013-02-03 17:55:00,60.4,55.9,29.59,ESE,112,17.3,17.3,85,0.00,CLR,,0.00,WeatherDisplay:10.37,2013-02-03 15:55:00,
2013-02-03 17:56:00,60.4,55.9,29.59,SSE,158,12.7,12.7,85,0.00,CLR,,0.00,WeatherDisplay:10.37,2013-02-03 15:56:00,
2013-02-03 17:57:00,60.4,55.9,29.59,SSE,158,12.7,12.7,85,0.00,CLR,,0.00,WeatherDisplay:10.37,2013-02-03 15:57:00,
2013-02-03 17:59:00,60.4,55.9,29.59,South,180,15.0,15.0,85,0.00,CLR,,0.00,WeatherDisplay:10.37,2013-02-03 15:59:00,
2013-02-03 18:01:00,60.4,56.2,29.59,SSE,158,12.7,12.7,86,0.00,CLR,,0.00,WeatherDisplay:10.37,2013-02-03 16:01:00,
2013-02-03 18:02:00,60.4,56.2,29.59,SSE,158,15.0,15.0,86,0.00,CLR,,0.00,WeatherDisplay:10.37,2013-02-03 16:02:00,
2013-02-03 18:04:00,60.4,56.2,29.59,SSE,158,15.0,15.0,86,0.00,CLR,,0.00,WeatherDisplay:10.37,2013-02-03 16:04:00,
2013-02-03 18:06:00,60.3,56.1,29.59,SSE,158,11.5,11.5,86,0.00,CLR,,0.00,WeatherDisplay:10.37,2013-02-03 16:06:00,
2013-02-03 18:07:00,60.3,56.4,29.59,SE,135,13.8,13.8,87,0.00,CLR,,0.00,WeatherDisplay:10.37,2013-02-03 16:07:00,
2013-02-03 18:09:00,60.3,56.4,29.59,SSE,158,8.1,8.1,87,0.00,CLR,,0.00,WeatherDisplay:10.37,2013-02-03 16:09:00,
2013-02-03 18:11:00,60.3,56.4,29.59,South,180,13.8,13.8,87,0.00,CLR,,0.00,WeatherDisplay:10.37,2013-02-03 16:11:00,
2013-02-03 18:12:00,60.3,56.4,29.59,SE,135,13.8,13.8,87,0.00,CLR,,0.00,WeatherDisplay:10.37,2013-02-03 16:12:00,
2013-02-03 18:14:00,60.3,56.4,29.59,SE,135,8.1,8.1,87,0.00,CLR,,0.00,WeatherDisplay:10.37,2013-02-03 16:14:00,
2013-02-03 18:16:00,60.3,56.7,29.62,South,180,17.3,17.3,88,0.00,CLR,,0.00,WeatherDisplay:10.37,2013-02-03 16:16:00,
2013-02-03 18:17:00,60.3,56.7,29.62,SSE,158,13.0,13.0,88,0.00,CLR,,0.00,WeatherDisplay:10.37,2013-02-03 16:17:00,
2013-02-03 18:18:00,60.3,57.0,29.62,SE,135,12.7,12.7,89,0.00,CLR,,0.00,WeatherDisplay:10.37,2013-02-03 16:18:00,
2013-02-03 18:19:00,60.3,56.7,29.62,SSE,158,9.2,9.2,88,0.00,CLR,,0.00,WeatherDisplay:10.37,2013-02-03 16:19:00,
2013-02-03 18:21:00,60.3,57.0,29.62,SE,135,10.4,10.4,89,0.00,CLR,,0.00,WeatherDisplay:10.37,2013-02-03 16:21:00,
2013-02-03 18:22:00,60.3,57.0,29.62,SSE,158,10.2,10.2,89,0.00,CLR,,0.00,WeatherDisplay:10.37,2013-02-03 16:22:00,
2013-02-03 18:23:00,60.3,57.0,29.62,SSE,158,17.3,17.3,89,0.00,CLR,,0.00,WeatherDisplay:10.37,2013-02-03 16:23:00,
2013-02-03 18:24:00,60.3,57.0,29.62,SSE,158,13.8,13.8,89,0.00,CLR,,0.00,WeatherDisplay:10.37,2013-02-03 16:24:00,
2013-02-03 18:26:00,60.3,57.0,29.62,SSE,158,13.8,13.8,89,0.00,CLR,,0.00,WeatherDisplay:10.37,2013-02-03 16:26:00,
2013-02-03 18:27:00,60.3,57.3,29.62,SSE,158,13.8,13.8,90,0.00,CLR,,0.00,WeatherDisplay:10.37,2013-02-03 16:27:00,
2013-02-03 18:28:00,60.3,57.3,29.62,SE,135,13.8,13.8,90,0.00,CLR,,0.00,WeatherDisplay:10.37,2013-02-03 16:28:00,
2013-02-03 18:29:00,60.1,57.1,29.62,SSE,158,13.8,13.8,90,0.00,CLR,,0.00,WeatherDisplay:10.37,2013-02-03 16:29:00,
2013-02-03 18:31:00,60.1,57.1,29.62,South,180,19.6,19.6,90,0.00,CLR,,0.00,WeatherDisplay:10.37,2013-02-03 16:31:00,
2013-02-03 18:32:00,60.1,57.1,29.62,SSE,158,17.3,17.3,90,0.00,CLR,,0.00,WeatherDisplay:10.37,2013-02-03 16:32:00,
2013-02-03 18:34:00,60.1,57.1,29.62,ENE,68,8.5,8.5,90,0.00,CLR,,0.00,WeatherDisplay:10.37,2013-02-03 16:34:00,
2013-02-03 18:37:00,60.1,57.1,29.62,SSE,158,13.8,13.8,90,0.00,CLR,,0.00,WeatherDisplay:10.37,2013-02-03 16:37:00,
2013-02-03 18:39:00,60.1,57.4,29.62,SSE,158,12.7,12.7,91,0.00,CLR,,0.00,WeatherDisplay:10.37,2013-02-03 16:39:00,
2013-02-03 18:42:00,60.1,57.4,29.62,SSE,158,17.3,17.3,91,0.00,CLR,,0.00,WeatherDisplay:10.37,2013-02-03 16:42:00,
2013-02-03 18:44:00,60.1,57.4,29.62,South,180,15.0,15.0,91,0.00,CLR,,0.00,WeatherDisplay:10.37,2013-02-03 16:44:00,
2013-02-03 18:45:00,60.1,57.7,29.62,South,180,15.0,15.0,92,0.00,CLR,,0.00,WeatherDisplay:10.37,2013-02-03 16:45:00,
2013-02-03 18:47:00,59.9,57.6,29.62,ESE,112,17.3,17.3,92,0.00,CLR,,0.00,WeatherDisplay:10.37,2013-02-03 16:47:00,
2013-02-03 18:48:00,59.9,57.6,29.62,SSE,158,17.3,17.3,92,0.00,CLR,,0.00,WeatherDisplay:10.37,2013-02-03 16:48:00,
2013-02-03 18:50:00,59.9,57.6,29.62,SSE,158,20.6,20.6,92,0.00,CLR,,0.00,WeatherDisplay:10.37,2013-02-03 16:50:00,
2013-02-03 18:53:00,59.9,57.6,29.62,SSE,158,8.1,8.1,92,0.00,CLR,,0.00,WeatherDisplay:10.37,2013-02-03 16:53:00,
2013-02-03 18:55:00,59.9,57.6,29.62,SSE,158,5.8,6.2,92,0.00,CLR,,0.00,WeatherDisplay:10.37,2013-02-03 16:55:00,
2013-02-03 18:58:00,59.9,57.6,29.62,SSE,158,9.2,9.2,92,0.00,CLR,,0.00,WeatherDisplay:10.37,2013-02-03 16:58:00,
2013-02-03 19:00:00,59.9,57.9,29.62,SSE,158,12.0,17.0,93,0.00,CLR,,0.00,WeatherDisplay:10.37,2013-02-03 17:00:00,
2013-02-03 19:03:00,59.7,57.7,29.62,SE,135,13.8,13.8,93,0.00,CLR,,0.00,WeatherDisplay:10.37,2013-02-03 17:03:00,
2013-02-03 19:04:00,59.7,57.7,29.62,SE,135,13.8,13.8,93,0.00,CLR,,0.00,WeatherDisplay:10.37,2013-02-03 17:04:00,
2013-02-03 19:05:00,59.7,57.7,29.62,SSE,158,10.7,10.7,93,0.00,CLR,,0.00,WeatherDisplay:10.37,2013-02-03 17:05:00,
2013-02-03 19:08:00,59.7,58.0,29.62,SSE,158,18.4,18.4,94,0.00,CLR,,0.00,WeatherDisplay:10.37,2013-02-03 17:08:00,
2013-02-03 19:09:00,59.7,58.0,29.62,SSE,158,17.3,17.3,94,0.00,CLR,,0.00,WeatherDisplay:10.37,2013-02-03 17:09:00,
2013-02-03 19:10:00,59.7,58.0,29.62,SSE,158,17.3,17.3,94,0.00,CLR,,0.00,WeatherDisplay:10.37,2013-02-03 17:10:00,
2013-02-03 19:13:00,59.7,58.0,29.62,SE,135,9.2,9.2,94,0.00,CLR,,0.00,WeatherDisplay:10.37,2013-02-03 17:13:00,
2013-02-03 19:14:00,59.7,58.0,29.62,SSW,202,17.3,17.3,94,0.00,CLR,,0.00,WeatherDisplay:10.37,2013-02-03 17:14:00,
2013-02-03 19:15:00,59.7,58.3,29.62,SSE,158,19.6,19.6,95,0.00,CLR,,0.00,WeatherDisplay:10.37,2013-02-03 17:15:00,
2013-02-03 19:18:00,59.7,58.3,29.59,SE,135,17.3,17.3,95,0.00,CLR,,0.00,WeatherDisplay:10.37,2013-02-03 17:18:00,
2013-02-03 19:19:00,59.7,58.3,29.59,SSE,158,17.3,17.3,95,0.00,CLR,,0.00,WeatherDisplay:10.37,2013-02-03 17:19:00,
2013-02-03 19:20:00,59.7,58.3,29.59,SSE,158,16.1,16.1,95,0.00,CLR,,0.00,WeatherDisplay:10.37,2013-02-03 17:20:00,
2013-02-03 19:21:00,59.7,58.3,29.59,ESE,112,14.0,14.0,95,0.00,CLR,,0.00,WeatherDisplay:10.37,2013-02-03 17:21:00,
2013-02-03 19:23:00,59.7,58.3,29.59,SSE,158,16.1,16.1,95,0.00,CLR,,0.00,WeatherDisplay:10.37,2013-02-03 17:23:00,
2013-02-03 19:24:00,59.7,58.3,29.59,East,90,16.1,16.1,95,0.00,CLR,,0.00,WeatherDisplay:10.37,2013-02-03 17:24:00,
2013-02-03 19:25:00,59.5,58.1,29.59,SSE,158,12.3,12.3,95,0.00,CLR,,0.00,WeatherDisplay:10.37,2013-02-03 17:25:00,
2013-02-03 19:26:00,59.5,58.1,29.59,SSE,158,19.6,19.6,95,0.00,CLR,,0.00,WeatherDisplay:10.37,2013-02-03 17:26:00,
2013-02-03 19:28:00,59.5,58.4,29.59,SSE,158,11.8,11.8,96,0.00,CLR,,0.00,WeatherDisplay:10.37,2013-02-03 17:28:00,
2013-02-03 19:29:00,59.5,58.4,29.59,SSE,158,11.5,11.5,96,0.00,CLR,,0.00,WeatherDisplay:10.37,2013-02-03 17:29:00,
2013-02-03 19:31:00,59.5,58.4,29.62,SSW,202,11.5,11.5,96,0.00,CLR,,0.00,WeatherDisplay:10.37,2013-02-03 17:31:00,
2013-02-03 19:34:00,59.5,58.4,29.62,ESE,112,12.7,12.7,96,0.00,CLR,,0.00,WeatherDisplay:10.37,2013-02-03 17:34:00,
2013-02-03 19:36:00,59.5,58.4,29.62,SSE,158,17.3,17.3,96,0.00,CLR,,0.00,WeatherDisplay:10.37,2013-02-03 17:36:00,
2013-02-03 19:39:00,59.4,58.5,29.62,East,90,11.4,11.4,97,0.00,CLR,,0.00,WeatherDisplay:10.37,2013-02-03 17:39:00,
2013-02-03 19:41:00,59.4,58.5,29.62,SSE,158,11.5,11.5,97,0.00,CLR,,0.00,WeatherDisplay:10.37,2013-02-03 17:41:00,
2013-02-03 19:44:00,59.4,58.5,29.62,SSE,158,9.2,9.2,97,0.00,CLR,,0.00,WeatherDisplay:10.37,2013-02-03 17:44:00,
2013-02-03 19:45:00,59.4,58.5,29.62,ESE,112,9.2,9.2,97,0.00,CLR,,0.00,WeatherDisplay:10.37,2013-02-03 17:45:00,
2013-02-03 19:46:00,59.4,58.5,29.62,SE,135,9.7,9.7,97,0.00,CLR,,0.00,WeatherDisplay:10.37,2013-02-03 17:46:00,
2013-02-03 19:47:00,59.4,58.5,29.62,SE,135,9.7,9.7,97,0.00,CLR,,0.00,WeatherDisplay:10.37,2013-02-03 17:47:00,
2013-02-03 19:49:00,59.4,58.8,29.62,SSE,158,16.1,16.1,98,0.00,CLR,,0.00,WeatherDisplay:10.37,2013-02-03 17:49:00,
2013-02-03 19:50:00,59.4,58.8,29.62,SSE,153,8.0,16.0,98,0.00,CLR,,0.00,WeatherDisplay:10.37,2013-02-03 17:50:00,
2013-02-03 19:52:00,59.4,58.8,29.62,South,180,19.6,19.6,98,0.00,CLR,,0.00,WeatherDisplay:10.37,2013-02-03 17:52:00,
2013-02-03 19:54:00,59.4,59.1,29.62,SSE,158,11.5,11.5,99,0.00,CLR,,0.00,WeatherDisplay:10.37,2013-02-03 17:54:00,
2013-02-03 19:55:00,59.4,59.1,29.62,SE,135,10.4,10.4,99,0.00,CLR,,0.00,WeatherDisplay:10.37,2013-02-03 17:55:00,
2013-02-03 19:57:00,59.2,58.9,29.62,NE,45,9.2,9.2,99,0.00,CLR,,0.00,WeatherDisplay:10.37,2013-02-03 17:57:00,
2013-02-03 19:59:00,59.2,58.9,29.62,SSE,158,12.7,12.7,99,0.00,CLR,,0.00,WeatherDisplay:10.37,2013-02-03 17:59:00,
2013-02-03 20:00:00,59.2,58.9,29.62,SSE,158,9.2,9.2,99,0.00,CLR,,0.00,WeatherDisplay:10.37,2013-02-03 18:00:00,
2013-02-03 20:02:00,59.2,58.9,29.65,SSE,158,9.2,9.2,99,0.00,CLR,,0.00,WeatherDisplay:10.37,2013-02-03 18:02:00,
2013-02-03 20:04:00,59.2,58.9,29.65,SSE,158,10.4,10.4,99,0.00,CLR,,0.00,WeatherDisplay:10.37,2013-02-03 18:04:00,
2013-02-03 20:06:00,59.2,59.2,29.65,SE,135,15.0,15.0,100,0.00,CLR,,0.00,WeatherDisplay:10.37,2013-02-03 18:06:00,
2013-02-03 20:07:00,59.2,59.2,29.65,SE,135,12.7,12.7,100,0.00,CLR,,0.00,WeatherDisplay:10.37,2013-02-03 18:07:00,
2013-02-03 20:10:00,59.2,59.2,29.65,ESE,112,14.7,14.7,100,0.00,CLR,,0.00,WeatherDisplay:10.37,2013-02-03 18:10:00,
2013-02-03 20:11:00,59.2,59.2,29.65,SE,135,15.0,15.0,100,0.00,CLR,,0.00,WeatherDisplay:10.37,2013-02-03 18:11:00,
2013-02-03 20:12:00,59.2,59.2,29.65,SSE,158,13.8,13.8,100,0.00,CLR,,0.00,WeatherDisplay:10.37,2013-02-03 18:12:00,
2013-02-03 20:15:00,59.2,59.2,29.65,SSE,158,13.8,13.8,100,0.00,CLR,,0.00,WeatherDisplay:10.37,2013-02-03 18:15:00,
2013-02-03 20:16:00,59.2,59.2,29.65,South,180,9.2,9.2,100,0.00,CLR,,0.00,WeatherDisplay:10.37,2013-02-03 18:16:00,
2013-02-03 20:17:00,59.0,59.0,29.65,SSE,158,13.8,13.8,100,0.00,CLR,,0.00,WeatherDisplay:10.37,2013-02-03 18:17:00,
2013-02-03 20:18:00,59.2,59.2,29.65,East,90,13.8,13.8,100,0.00,CLR,,0.00,WeatherDisplay:10.37,2013-02-03 18:18:00,
2013-02-03 20:20:00,59.2,59.2,29.65,South,180,13.8,13.8,100,0.00,CLR,,0.00,WeatherDisplay:10.37,2013-02-03 18:20:00,
2013-02-03 20:21:00,59.2,59.2,29.65,South,180,10.4,10.4,100,0.00,CLR,,0.00,WeatherDisplay:10.37,2013-02-03 18:21:00,
2013-02-03 20:22:00,59.0,59.0,29.65,SSW,202,10.7,10.7,100,0.00,CLR,,0.00,WeatherDisplay:10.37,2013-02-03 18:22:00,
2013-02-03 20:23:00,59.0,59.0,29.65,SSE,158,8.1,8.1,100,0.00,CLR,,0.00,WeatherDisplay:10.37,2013-02-03 18:23:00,
2013-02-03 20:25:00,59.0,59.0,29.65,SSE,158,15.2,15.2,100,0.00,CLR,,0.00,WeatherDisplay:10.37,2013-02-03 18:25:00,
2013-02-03 20:26:00,59.0,59.0,29.65,SSE,158,15.0,15.0,100,0.00,CLR,,0.00,WeatherDisplay:10.37,2013-02-03 18:26:00,
2013-02-03 20:28:00,59.0,59.0,29.65,SSE,158,9.2,9.4,100,0.00,CLR,,0.00,WeatherDisplay:10.37,2013-02-03 18:28:00,
2013-02-03 20:30:00,59.0,59.0,29.65,SSE,158,17.3,17.3,100,0.00,CLR,,0.00,WeatherDisplay:10.37,2013-02-03 18:30:00,
2013-02-03 20:31:00,59.0,59.0,29.65,SE,135,17.3,17.3,100,0.00,CLR,,0.00,WeatherDisplay:10.37,2013-02-03 18:31:00,
2013-02-03 20:33:00,59.0,59.0,29.65,South,180,17.3,17.3,100,0.00,CLR,,0.00,WeatherDisplay:10.37,2013-02-03 18:33:00,
2013-02-03 20:36:00,59.0,59.0,29.65,SSE,158,15.0,15.0,100,0.00,CLR,,0.00,WeatherDisplay:10.37,2013-02-03 18:36:00,
2013-02-03 20:38:00,59.0,59.0,29.65,SSE,158,10.4,10.4,100,0.00,CLR,,0.00,WeatherDisplay:10.37,2013-02-03 18:38:00,
2013-02-03 20:41:00,59.0,59.0,29.65,SE,135,13.8,13.8,100,0.00,CLR,,0.00,WeatherDisplay:10.37,2013-02-03 18:41:00,
2013-02-03 20:43:00,59.0,59.0,29.65,SSE,158,9.2,9.2,100,0.00,CLR,,0.00,WeatherDisplay:10.37,2013-02-03 18:43:00,
2013-02-03 20:46:00,59.0,59.0,29.68,ESE,112,13.8,13.8,100,0.00,CLR,,0.00,WeatherDisplay:10.37,2013-02-03 18:46:00,
2013-02-03 20:48:00,59.0,59.0,29.68,ESE,112,16.1,16.1,100,0.00,CLR,,0.00,WeatherDisplay:10.37,2013-02-03 18:48:00,
2013-02-03 20:51:00,58.8,58.8,29.68,ESE,112,9.2,9.2,100,0.00,CLR,,0.00,WeatherDisplay:10.37,2013-02-03 18:51:00,
2013-02-03 20:52:00,58.8,58.8,29.68,ESE,112,9.2,9.2,100,0.00,CLR,,0.00,WeatherDisplay:10.37,2013-02-03 18:52:00,
2013-02-03 20:53:00,58.8,58.8,29.68,SSE,158,10.7,10.7,100,0.00,CLR,,0.00,WeatherDisplay:10.37,2013-02-03 18:53:00,
2013-02-03 20:54:00,58.8,58.8,29.68,SSE,158,12.7,12.7,100,0.00,CLR,,0.00,WeatherDisplay:10.37,2013-02-03 18:54:00,
2013-02-03 20:56:00,58.8,58.8,29.68,ENE,68,8.1,8.1,100,0.00,CLR,,0.00,WeatherDisplay:10.37,2013-02-03 18:56:00,
2013-02-03 20:57:00,58.8,58.8,29.68,ESE,112,8.1,8.1,100,0.00,CLR,,0.00,WeatherDisplay:10.37,2013-02-03 18:57:00,
2013-02-03 20:58:00,58.8,58.8,29.68,SSE,158,11.5,11.5,100,0.00,CLR,,0.00,WeatherDisplay:10.37,2013-02-03 18:58:00,
2013-02-03 20:59:00,58.8,58.8,29.68,SSE,158,6.9,6.9,100,0.00,CLR,,0.00,WeatherDisplay:10.37,2013-02-03 18:59:00,
2013-02-03 21:02:00,58.8,58.8,29.68,SSE,158,15.2,15.2,100,0.00,CLR,,0.00,WeatherDisplay:10.37,2013-02-03 19:02:00,
2013-02-03 21:03:00,58.8,58.8,29.68,ESE,112,15.0,15.0,100,0.00,CLR,,0.00,WeatherDisplay:10.37,2013-02-03 19:03:00,
2013-02-03 21:04:00,58.8,58.8,29.68,SSE,158,7.4,7.4,100,0.00,CLR,,0.00,WeatherDisplay:10.37,2013-02-03 19:04:00,
2013-02-03 21:07:00,58.8,58.8,29.68,SE,135,9.2,9.2,100,0.00,CLR,,0.00,WeatherDisplay:10.37,2013-02-03 19:07:00,
2013-02-03 21:09:00,58.8,58.8,29.68,SSW,202,4.6,4.6,100,0.00,CLR,,0.00,WeatherDisplay:10.37,2013-02-03 19:09:00,
2013-02-03 21:10:00,58.8,58.8,29.68,SSE,158,4.6,4.6,100,0.00,CLR,,0.00,WeatherDisplay:10.37,2013-02-03 19:10:00,
2013-02-03 21:12:00,58.8,58.8,29.68,SSE,158,12.7,12.7,100,0.00,CLR,,0.00,WeatherDisplay:10.37,2013-02-03 19:12:00,
2013-02-03 21:14:00,58.8,58.8,29.68,SSE,158,12.7,12.7,100,0.00,CLR,,0.00,WeatherDisplay:10.37,2013-02-03 19:14:00,
2013-02-03 21:15:00,58.8,58.8,29.68,SSE,158,5.8,5.8,100,0.00,CLR,,0.00,WeatherDisplay:10.37,2013-02-03 19:15:00,
2013-02-03 21:17:00,58.8,58.8,29.68,SE,135,6.4,6.4,100,0.00,CLR,,0.00,WeatherDisplay:10.37,2013-02-03 19:17:00,
2013-02-03 21:19:00,58.8,58.8,29.68,SSE,158,8.1,8.1,100,0.00,CLR,,0.00,WeatherDisplay:10.37,2013-02-03 19:19:00,
2013-02-03 21:20:00,58.8,58.8,29.68,ESE,112,8.1,8.1,100,0.00,CLR,,0.00,WeatherDisplay:10.37,2013-02-03 19:20:00,
2013-02-03 21:22:00,58.8,58.8,29.68,SSE,158,8.1,8.1,100,0.00,CLR,,0.00,WeatherDisplay:10.37,2013-02-03 19:22:00,
2013-02-03 21:24:00,58.8,58.8,29.68,SE,135,15.0,15.0,100,0.00,CLR,,0.00,WeatherDisplay:10.37,2013-02-03 19:24:00,
2013-02-03 21:25:00,58.8,58.8,29.68,ESE,112,6.9,6.9,100,0.00,CLR,,0.00,WeatherDisplay:10.37,2013-02-03 19:25:00,
2013-02-03 21:27:00,58.8,58.8,29.68,SE,135,9.2,9.2,100,0.00,CLR,,0.00,WeatherDisplay:10.37,2013-02-03 19:27:00,
2013-02-03 21:28:00,58.8,58.8,29.68,SE,135,9.2,9.2,100,0.00,CLR,,0.00,WeatherDisplay:10.37,2013-02-03 19:28:00,
2013-02-03 21:30:00,58.6,58.6,29.68,ESE,112,6.9,6.9,100,0.00,CLR,,0.00,WeatherDisplay:10.37,2013-02-03 19:30:00,
2013-02-03 21:32:00,58.8,58.8,29.68,SE,135,8.1,8.1,100,0.00,CLR,,0.00,WeatherDisplay:10.37,2013-02-03 19:32:00,
2013-02-03 21:33:00,58.8,58.8,29.68,SSE,158,6.9,6.9,100,0.00,CLR,,0.00,WeatherDisplay:10.37,2013-02-03 19:33:00,
2013-02-03 21:35:00,58.8,58.8,29.68,SSE,158,8.1,8.1,100,0.00,CLR,,0.00,WeatherDisplay:10.37,2013-02-03 19:35:00,
2013-02-03 21:38:00,58.6,58.6,29.68,NE,45,8.1,8.1,100,0.00,CLR,,0.00,WeatherDisplay:10.37,2013-02-03 19:38:00,
2013-02-03 21:40:00,58.8,58.8,29.68,ESE,112,9.2,9.2,100,0.00,CLR,,0.00,WeatherDisplay:10.37,2013-02-03 19:40:00,
2013-02-03 21:43:00,58.8,58.8,29.68,ESE,112,5.8,5.8,100,0.00,CLR,,0.00,WeatherDisplay:10.37,2013-02-03 19:43:00,
2013-02-03 21:45:00,58.8,58.8,29.68,SSE,158,11.5,11.5,100,0.00,CLR,,0.00,WeatherDisplay:10.37,2013-02-03 19:45:00,
2013-02-03 21:48:00,58.8,58.8,29.65,SE,135,10.2,10.2,100,0.00,CLR,,0.00,WeatherDisplay:10.37,2013-02-03 19:48:00,
2013-02-03 21:49:00,58.8,58.8,29.65,SE,135,13.8,13.8,100,0.00,CLR,,0.00,WeatherDisplay:10.37,2013-02-03 19:49:00,
2013-02-03 21:50:00,58.8,58.8,29.65,SSE,158,8.1,8.1,100,0.00,CLR,,0.00,WeatherDisplay:10.37,2013-02-03 19:50:00,
2013-02-03 21:51:00,58.8,58.8,29.65,ESE,112,9.2,9.2,100,0.00,CLR,,0.00,WeatherDisplay:10.37,2013-02-03 19:51:00,
2013-02-03 21:53:00,58.8,58.8,29.65,SSE,158,12.3,12.3,100,0.00,CLR,,0.00,WeatherDisplay:10.37,2013-02-03 19:53:00,
2013-02-03 21:54:00,58.8,58.8,29.65,SE,135,12.7,12.7,100,0.00,CLR,,0.00,WeatherDisplay:10.37,2013-02-03 19:54:00,
2013-02-03 21:55:00,58.8,58.8,29.65,SE,135,11.8,11.8,100,0.00,CLR,,0.00,WeatherDisplay:10.37,2013-02-03 19:55:00,
2013-02-03 21:56:00,58.8,58.8,29.65,East,90,15.0,15.0,100,0.00,CLR,,0.00,WeatherDisplay:10.37,2013-02-03 19:56:00,
2013-02-03 21:58:00,58.8,58.8,29.65,ESE,112,11.5,11.5,100,0.00,CLR,,0.00,WeatherDisplay:10.37,2013-02-03 19:58:00,
2013-02-03 21:59:00,58.8,58.8,29.65,ESE,112,12.7,12.7,100,0.00,CLR,,0.00,WeatherDisplay:10.37,2013-02-03 19:59:00,
2013-02-03 22:01:00,58.8,58.8,29.68,SSE,158,13.8,13.8,100,0.00,CLR,,0.00,WeatherDisplay:10.37,2013-02-03 20:01:00,
2013-02-03 22:03:00,58.8,58.8,29.68,SE,135,17.3,17.3,100,0.00,CLR,,0.00,WeatherDisplay:10.37,2013-02-03 20:03:00,
2013-02-03 22:04:00,58.8,58.8,29.68,SSE,158,17.3,17.3,100,0.00,CLR,,0.00,WeatherDisplay:10.37,2013-02-03 20:04:00,
2013-02-03 22:06:00,59.0,59.0,29.68,SE,135,18.4,18.4,100,0.00,CLR,,0.00,WeatherDisplay:10.37,2013-02-03 20:06:00,
2013-02-03 22:08:00,59.0,59.0,29.68,SSE,158,12.7,12.7,100,0.00,CLR,,0.00,WeatherDisplay:10.37,2013-02-03 20:08:00,
2013-02-03 22:09:00,59.0,59.0,29.68,SSE,158,10.5,10.5,100,0.00,CLR,,0.00,WeatherDisplay:10.37,2013-02-03 20:09:00,
2013-02-03 22:11:00,59.0,59.0,29.68,SSE,158,13.8,13.8,100,0.00,CLR,,0.00,WeatherDisplay:10.37,2013-02-03 20:11:00,
2013-02-03 22:12:00,59.0,59.0,29.68,SE,135,13.8,13.8,100,0.00,CLR,,0.00,WeatherDisplay:10.37,2013-02-03 20:12:00,
2013-02-03 22:13:00,58.8,58.8,29.68,SSE,158,17.6,17.6,100,0.00,CLR,,0.00,WeatherDisplay:10.37,2013-02-03 20:13:00,
2013-02-03 22:14:00,59.0,59.0,29.68,SSE,158,17.3,17.3,100,0.00,CLR,,0.00,WeatherDisplay:10.37,2013-02-03 20:14:00,
2013-02-03 22:16:00,58.8,58.8,29.65,SSE,158,11.5,11.5,100,0.00,CLR,,0.00,WeatherDisplay:10.37,2013-02-03 20:16:00,
2013-02-03 22:17:00,59.0,59.0,29.65,SSE,158,15.0,15.0,100,0.00,CLR,,0.00,WeatherDisplay:10.37,2013-02-03 20:17:00,
2013-02-03 22:19:00,58.8,58.8,29.65,SSE,158,10.4,10.4,100,0.00,CLR,,0.00,WeatherDisplay:10.37,2013-02-03 20:19:00,
2013-02-03 22:21:00,59.0,59.0,29.65,SE,135,13.8,13.8,100,0.00,CLR,,0.00,WeatherDisplay:10.37,2013-02-03 20:21:00,
2013-02-03 22:22:00,59.0,59.0,29.65,SSE,158,13.8,13.8,100,0.00,CLR,,0.00,WeatherDisplay:10.37,2013-02-03 20:22:00,
2013-02-03 22:24:00,59.0,59.0,29.65,SSE,158,9.8,10.0,100,0.00,CLR,,0.00,WeatherDisplay:10.37,2013-02-03 20:24:00,
2013-02-03 22:25:00,59.0,59.0,29.65,SE,140,10.0,17.0,100,0.00,CLR,,0.00,WeatherDisplay:10.37,2013-02-03 20:25:00,
2013-02-03 22:26:00,59.0,59.0,29.65,SE,135,10.4,10.4,100,0.00,CLR,,0.00,WeatherDisplay:10.37,2013-02-03 20:26:00,
2013-02-03 22:27:00,59.0,59.0,29.65,SSE,158,12.7,12.7,100,0.00,CLR,,0.00,WeatherDisplay:10.37,2013-02-03 20:27:00,
2013-02-03 22:29:00,59.0,59.0,29.65,SE,135,17.3,17.3,100,0.00,CLR,,0.00,WeatherDisplay:10.37,2013-02-03 20:29:00,
2013-02-03 22:30:00,58.9,58.9,29.65,SE,135,9.0,18.0,100,0.00,CLR,,0.00,WeatherDisplay:10.37,2013-02-03 20:30:00,
2013-02-03 22:31:00,59.0,59.0,29.68,ESE,112,17.3,17.3,100,0.00,CLR,,0.00,WeatherDisplay:10.37,2013-02-03 20:31:00,
2013-02-03 22:32:00,59.0,59.0,29.68,SE,135,12.7,12.7,100,0.00,CLR,,0.00,WeatherDisplay:10.37,2013-02-03 20:32:00,
2013-02-03 22:34:00,59.0,59.0,29.68,SSE,158,23.0,23.0,100,0.00,CLR,,0.00,WeatherDisplay:10.37,2013-02-03 20:34:00,
2013-02-03 22:35:00,59.0,59.0,29.68,SSE,158,16.1,16.1,100,0.00,CLR,,0.00,WeatherDisplay:10.37,2013-02-03 20:35:00,
2013-02-03 22:36:00,59.0,59.0,29.68,ENE,68,12.8,12.8,100,0.00,CLR,,0.00,WeatherDisplay:10.37,2013-02-03 20:36:00,
2013-02-03 22:37:00,59.0,59.0,29.68,SSE,158,12.7,12.7,100,0.00,CLR,,0.00,WeatherDisplay:10.37,2013-02-03 20:37:00,
2013-02-03 22:40:00,58.8,58.8,29.68,SSE,158,11.5,11.5,100,0.00,CLR,,0.00,WeatherDisplay:10.37,2013-02-03 20:40:00,
2013-02-03 22:42:00,58.8,58.8,29.68,SSE,158,13.8,13.8,100,0.00,CLR,,0.00,WeatherDisplay:10.37,2013-02-03 20:42:00,
2013-02-03 22:45:00,58.8,58.8,29.68,SSE,158,9.7,9.7,100,0.00,CLR,,0.00,WeatherDisplay:10.37,2013-02-03 20:45:00,
2013-02-03 22:47:00,58.8,58.8,29.68,SSE,158,8.1,8.1,100,0.00,CLR,,0.00,WeatherDisplay:10.37,2013-02-03 20:47:00,
2013-02-03 22:50:00,58.8,58.8,29.68,East,90,13.8,13.8,100,0.00,CLR,,0.00,WeatherDisplay:10.37,2013-02-03 20:50:00,
2013-02-03 22:52:00,58.8,58.8,29.68,SE,135,12.8,12.8,100,0.00,CLR,,0.00,WeatherDisplay:10.37,2013-02-03 20:52:00,
2013-02-03 22:55:00,58.9,58.9,29.68,SE,141,8.0,15.0,100,0.00,CLR,,0.00,WeatherDisplay:10.37,2013-02-03 20:55:00,
2013-02-03 22:57:00,59.0,59.0,29.68,SSE,158,9.2,9.2,100,0.00,CLR,,0.00,WeatherDisplay:10.37,2013-02-03 20:57:00,
2013-02-03 23:00:00,59.0,59.0,29.68,ENE,68,11.5,11.5,100,0.00,CLR,,0.00,WeatherDisplay:10.37,2013-02-03 21:00:00,
2013-02-03 23:02:00,59.0,59.0,29.68,SSE,158,17.3,17.3,100,0.00,CLR,,0.00,WeatherDisplay:10.37,2013-02-03 21:02:00,
2013-02-03 23:05:00,59.0,59.0,29.68,SSE,158,8.1,8.1,100,0.00,CLR,,0.00,WeatherDisplay:10.37,2013-02-03 21:05:00,
2013-02-03 23:06:00,59.0,59.0,29.68,SE,135,6.9,6.9,100,0.00,CLR,,0.00,WeatherDisplay:10.37,2013-02-03 21:06:00,
2013-02-03 23:07:00,59.0,59.0,29.68,ESE,112,12.7,12.7,100,0.00,CLR,,0.00,WeatherDisplay:10.37,2013-02-03 21:07:00,
2013-02-03 23:10:00,59.0,59.0,29.68,East,90,9.2,9.2,100,0.00,CLR,,0.00,WeatherDisplay:10.37,2013-02-03 21:10:00,
2013-02-03 23:11:00,59.0,59.0,29.68,ESE,112,9.2,9.2,100,0.00,CLR,,0.00,WeatherDisplay:10.37,2013-02-03 21:11:00,
2013-02-03 23:12:00,59.0,59.0,29.68,ESE,112,6.9,6.9,100,0.00,CLR,,0.00,WeatherDisplay:10.37,2013-02-03 21:12:00,
2013-02-03 23:13:00,59.0,59.0,29.68,SSE,158,8.1,8.1,100,0.00,CLR,,0.00,WeatherDisplay:10.37,2013-02-03 21:13:00,
2013-02-03 23:15:00,59.0,59.0,29.68,SSE,158,10.4,10.4,100,0.00,CLR,,0.00,WeatherDisplay:10.37,2013-02-03 21:15:00,
2013-02-03 23:16:00,59.0,59.0,29.68,SE,135,8.1,8.1,100,0.00,CLR,,0.00,WeatherDisplay:10.37,2013-02-03 21:16:00,
2013-02-03 23:17:00,59.0,59.0,29.68,SSE,158,4.6,4.6,100,0.00,CLR,,0.00,WeatherDisplay:10.37,2013-02-03 21:17:00,
2013-02-03 23:18:00,59.0,59.0,29.68,SSE,158,12.7,12.7,100,0.00,CLR,,0.00,WeatherDisplay:10.37,2013-02-03 21:18:00,
2013-02-03 23:20:00,59.0,59.0,29.68,SE,135,9.0,9.0,100,0.00,CLR,,0.00,WeatherDisplay:10.37,2013-02-03 21:20:00,
2013-02-03 23:21:00,59.0,59.0,29.68,East,90,12.7,12.7,100,0.00,CLR,,0.00,WeatherDisplay:10.37,2013-02-03 21:21:00,
2013-02-03 23:22:00,59.0,59.0,29.68,SE,135,11.5,11.5,100,0.00,CLR,,0.00,WeatherDisplay:10.37,2013-02-03 21:22:00,
2013-02-03 23:23:00,59.0,59.0,29.68,SSE,158,11.5,11.5,100,0.00,CLR,,0.00,WeatherDisplay:10.37,2013-02-03 21:23:00,
2013-02-03 23:25:00,59.0,59.0,29.68,South,180,5.8,5.8,100,0.00,CLR,,0.00,WeatherDisplay:10.37,2013-02-03 21:25:00,
2013-02-03 23:26:00,59.0,59.0,29.68,SSE,158,10.4,10.4,100,0.00,CLR,,0.00,WeatherDisplay:10.37,2013-02-03 21:26:00,
2013-02-03 23:27:00,59.0,59.0,29.68,SE,135,10.4,10.4,100,0.00,CLR,,0.00,WeatherDisplay:10.37,2013-02-03 21:27:00,
2013-02-03 23:28:00,59.0,59.0,29.68,SSE,158,10.4,10.4,100,0.00,CLR,,0.00,WeatherDisplay:10.37,2013-02-03 21:28:00,
2013-02-03 23:30:00,59.0,59.0,29.68,SSE,158,12.7,12.7,100,0.00,CLR,,0.00,WeatherDisplay:10.37,2013-02-03 21:30:00,
2013-02-03 23:31:00,59.0,59.0,29.68,SSE,158,10.5,10.5,100,0.00,CLR,,0.00,WeatherDisplay:10.37,2013-02-03 21:31:00,
2013-02-03 23:32:00,59.0,59.0,29.68,SE,135,14.7,14.7,100,0.00,CLR,,0.00,WeatherDisplay:10.37,2013-02-03 21:32:00,
2013-02-03 23:33:00,59.0,59.0,29.68,ESE,112,15.0,15.0,100,0.00,CLR,,0.00,WeatherDisplay:10.37,2013-02-03 21:33:00,
2013-02-03 23:35:00,59.0,59.0,29.68,SSE,158,12.7,12.7,100,0.00,CLR,,0.00,WeatherDisplay:10.37,2013-02-03 21:35:00,
2013-02-03 23:36:00,59.0,59.0,29.68,SSE,158,9.2,9.2,100,0.00,CLR,,0.00,WeatherDisplay:10.37,2013-02-03 21:36:00,
2013-02-03 23:38:00,58.8,58.8,29.68,ESE,112,9.8,9.8,100,0.00,CLR,,0.00,WeatherDisplay:10.37,2013-02-03 21:38:00,
2013-02-03 23:41:00,58.8,58.8,29.68,ESE,112,10.4,10.4,100,0.00,CLR,,0.00,WeatherDisplay:10.37,2013-02-03 21:41:00,
2013-02-03 23:42:00,58.8,58.8,29.68,SSE,158,10.4,10.4,100,0.00,CLR,,0.00,WeatherDisplay:10.37,2013-02-03 21:42:00,
2013-02-03 23:43:00,58.8,58.8,29.68,SSE,158,8.1,8.1,100,0.00,CLR,,0.00,WeatherDisplay:10.37,2013-02-03 21:43:00,
2013-02-03 23:46:00,58.8,58.8,29.71,SSE,158,8.1,8.1,100,0.00,CLR,,0.00,WeatherDisplay:10.37,2013-02-03 21:46:00,
2013-02-03 23:47:00,58.8,58.8,29.71,SSE,158,10.4,10.4,100,0.00,CLR,,0.00,WeatherDisplay:10.37,2013-02-03 21:47:00,
2013-02-03 23:48:00,58.8,58.8,29.71,SSE,158,5.8,6.4,100,0.00,CLR,,0.00,WeatherDisplay:10.37,2013-02-03 21:48:00,
2013-02-03 23:51:00,58.6,58.6,29.71,ESE,112,5.9,5.9,100,0.00,CLR,,0.00,WeatherDisplay:10.37,2013-02-03 21:51:00,
2013-02-03 23:52:00,58.6,58.6,29.71,SSE,158,5.8,5.8,100,0.00,CLR,,0.00,WeatherDisplay:10.37,2013-02-03 21:52:00,
2013-02-03 23:53:00,58.6,58.6,29.71,SSE,158,4.6,5.9,100,0.00,CLR,,0.00,WeatherDisplay:10.37,2013-02-03 21:53:00,
2013-02-03 23:54:00,58.6,58.6,29.71,SE,135,5.9,5.9,100,0.00,CLR,,0.00,WeatherDisplay:10.37,2013-02-03 21:54:00,
2013-02-03 23:56:00,58.5,58.5,29.71,SSE,158,11.5,11.5,100,0.00,CLR,,0.00,WeatherDisplay:10.37,2013-02-03 21:56:00,
2013-02-03 23:57:00,58.5,58.5,29.71,SE,135,9.2,9.2,100,0.00,CLR,,0.00,WeatherDisplay:10.37,2013-02-03 21:57:00,
2013-02-03 23:58:00,58.5,58.5,29.71,SSE,158,5.8,5.8,100,0.00,CLR,,0.00,WeatherDisplay:10.37,2013-02-03 21:58:00,
2013-02-03 23:59:00,58.5,58.5,29.71,SSE,158,5.8,5.8,100,0.00,CLR,,0.00,WeatherDisplay:10.37,2013-02-03 21:59:00,